Wetterdaten: Mittwoch, 26.10.2022
Datum Zeit Temp. Aussen Temp. o. S. Temp +5cm Feuchte Auss Luftdruck Regen Sonnenschein Regendauer Solar Windben Empfang
26.10.2022 00:00 11,2 C 10,6 C 7,8 C 95 % 1015,4 hPa 0,0 l/m 0 min 0 min 0 W/m 3,2 km/h (1 Bft) 95,74 %
26.10.2022 00:02 11,2 C 10,6 C 7,8 C 95 % 1015,4 hPa 0,0 l/m 0 min 0 min 0 W/m 3,2 km/h (1 Bft) 92,50 %
26.10.2022 00:04 11,2 C 10,6 C 7,8 C 95 % 1015,4 hPa 0,0 l/m 0 min 0 min 0 W/m 3,2 km/h (1 Bft) 95,74 %
26.10.2022 00:08 11,2 C 10,6 C 7,8 C 95 % 1015,4 hPa 0,0 l/m 0 min 0 min 0 W/m 3,2 km/h (1 Bft) 96,77 %
26.10.2022 00:10 11,3 C 10,6 C 7,8 C 95 % 1015,5 hPa 0,0 l/m 0 min 0 min 0 W/m 3,2 km/h (1 Bft) 100,00 %
26.10.2022 00:12 11,3 C 10,6 C 7,8 C 95 % 1015,4 hPa 0,0 l/m 0 min 0 min 0 W/m 3,2 km/h (1 Bft) 97,87 %
26.10.2022 00:14 11,3 C 10,6 C 7,8 C 95 % 1015,5 hPa 0,0 l/m 0 min 0 min 0 W/m 3,2 km/h (1 Bft) 100,00 %
26.10.2022 00:16 11,3 C 10,6 C 7,8 C 95 % 1015,5 hPa 0,0 l/m 0 min 0 min 0 W/m 3,2 km/h (1 Bft) 97,87 %
26.10.2022 00:18 11,3 C 10,6 C 7,8 C 95 % 1015,5 hPa 0,0 l/m 0 min 0 min 0 W/m 3,2 km/h (1 Bft) 97,83 %
26.10.2022 00:20 11,3 C 10,6 C 7,8 C 95 % 1015,4 hPa 0,0 l/m 0 min 0 min 0 W/m 3,2 km/h (1 Bft) 97,87 %
26.10.2022 00:22 11,4 C 11,1 C 7,8 C 95 % 1015,5 hPa 0,0 l/m 0 min 0 min 0 W/m 3,2 km/h (1 Bft) 95,74 %
26.10.2022 00:24 11,4 C 10,6 C 7,8 C 95 % 1015,4 hPa 0,0 l/m 0 min 0 min 0 W/m 3,2 km/h (1 Bft) 97,87 %
26.10.2022 00:26 11,4 C 10,6 C 7,8 C 95 % 1015,4 hPa 0,0 l/m 0 min 0 min 0 W/m 3,2 km/h (1 Bft) 95,74 %
26.10.2022 00:28 11,4 C 10,6 C 7,8 C 95 % 1015,4 hPa 0,0 l/m 0 min 0 min 0 W/m 3,2 km/h (1 Bft) 95,74 %
26.10.2022 00:30 11,4 C 10,6 C 7,8 C 95 % 1015,4 hPa 0,0 l/m 0 min 0 min 0 W/m 3,2 km/h (1 Bft) 97,83 %
26.10.2022 00:32 11,4 C 10,6 C 7,8 C 95 % 1015,3 hPa 0,0 l/m 0 min 0 min 0 W/m 3,2 km/h (1 Bft) 97,87 %
26.10.2022 00:34 11,4 C 10,6 C 7,8 C 95 % 1015,3 hPa 0,0 l/m 0 min 0 min 0 W/m 3,2 km/h (1 Bft) 93,62 %
26.10.2022 00:36 11,4 C 10,6 C 7,8 C 95 % 1015,4 hPa 0,0 l/m 0 min 0 min 0 W/m 3,2 km/h (1 Bft) 93,62 %
26.10.2022 00:38 11,4 C 10,6 C 7,8 C 95 % 1015,3 hPa 0,0 l/m 0 min 0 min 0 W/m 3,2 km/h (1 Bft) 97,87 %
26.10.2022 00:40 11,4 C 10,6 C 7,8 C 95 % 1015,4 hPa 0,0 l/m 0 min 0 min 0 W/m 12,9 km/h (3 Bft) 95,74 %
26.10.2022 00:42 11,4 C 10,6 C 7,8 C 95 % 1015,4 hPa 0,0 l/m 0 min 0 min 0 W/m 6,4 km/h (2 Bft) 93,48 %
26.10.2022 00:44 11,4 C 10,6 C 7,8 C 95 % 1015,4 hPa 0,0 l/m 0 min 0 min 0 W/m 3,2 km/h (1 Bft) 97,87 %
26.10.2022 00:46 11,4 C 10,6 C 7,8 C 95 % 1015,4 hPa 0,0 l/m 0 min 0 min 0 W/m 3,2 km/h (1 Bft) 97,87 %
26.10.2022 00:48 11,4 C 10,6 C 7,8 C 95 % 1015,4 hPa 0,0 l/m 0 min 0 min 0 W/m 0,0 km/h (0 Bft) 93,62 %
26.10.2022 00:50 11,4 C 10,6 C 7,8 C 95 % 1015,4 hPa 0,0 l/m 0 min 0 min 0 W/m 0,0 km/h (0 Bft) 97,87 %
26.10.2022 00:52 11,4 C 10,6 C 7,8 C 95 % 1015,3 hPa 0,0 l/m 0 min 0 min 0 W/m 12,9 km/h (3 Bft) 95,74 %
26.10.2022 00:54 11,4 C 10,6 C 7,8 C 95 % 1015,3 hPa 0,0 l/m 0 min 0 min 0 W/m 6,4 km/h (2 Bft) 97,83 %
26.10.2022 00:56 11,5 C 10,6 C 7,8 C 95 % 1015,3 hPa 0,0 l/m 0 min 0 min 0 W/m 6,4 km/h (2 Bft) 97,87 %
26.10.2022 00:58 11,4 C 10,6 C 7,8 C 95 % 1015,2 hPa 0,0 l/m 0 min 0 min 0 W/m 6,4 km/h (2 Bft) 97,87 %
26.10.2022 01:00 11,4 C 10,6 C 7,8 C 95 % 1015,3 hPa 0,0 l/m 0 min 0 min 0 W/m 6,4 km/h (2 Bft) 95,74 %
26.10.2022 01:02 11,5 C 10,6 C 7,8 C 95 % 1015,2 hPa 0,0 l/m 0 min 0 min 0 W/m 6,4 km/h (2 Bft) 97,87 %
26.10.2022 01:04 11,5 C 10,6 C 7,8 C 95 % 1015,2 hPa 0,0 l/m 0 min 0 min 0 W/m 6,4 km/h (2 Bft) 97,87 %
26.10.2022 01:06 11,5 C 10,6 C 7,8 C 95 % 1015,3 hPa 0,0 l/m 0 min 0 min 0 W/m 6,4 km/h (2 Bft) 97,83 %
26.10.2022 01:08 11,4 C 10,6 C 7,8 C 95 % 1015,2 hPa 0,0 l/m 0 min 0 min 0 W/m 3,2 km/h (1 Bft) 95,74 %
26.10.2022 01:10 11,5 C 10,6 C 7,8 C 95 % 1015,2 hPa 0,0 l/m 0 min 0 min 0 W/m 6,4 km/h (2 Bft) 97,87 %
26.10.2022 01:12 11,4 C 10,6 C 7,8 C 95 % 1015,2 hPa 0,0 l/m 0 min 0 min 0 W/m 3,2 km/h (1 Bft) 97,87 %
26.10.2022 01:14 11,4 C 10,6 C 7,8 C 95 % 1015,2 hPa 0,0 l/m 0 min 0 min 0 W/m 3,2 km/h (1 Bft) 97,87 %
26.10.2022 01:16 11,4 C 10,6 C 7,8 C 95 % 1015,2 hPa 0,0 l/m 0 min 0 min 0 W/m 6,4 km/h (2 Bft) 97,87 %
26.10.2022 01:18 11,4 C 10,6 C 7,8 C 95 % 1015,1 hPa 0,0 l/m 0 min 0 min 0 W/m 3,2 km/h (1 Bft) 97,83 %
26.10.2022 01:20 11,4 C 10,6 C 7,8 C 95 % 1015,2 hPa 0,0 l/m 0 min 0 min 0 W/m 3,2 km/h (1 Bft) 97,87 %
26.10.2022 01:22 11,4 C 10,6 C 7,8 C 95 % 1015,1 hPa 0,0 l/m 0 min 0 min 0 W/m 3,2 km/h (1 Bft) 97,87 %
26.10.2022 01:24 11,4 C 10,6 C 7,8 C 95 % 1015,1 hPa 0,0 l/m 0 min 0 min 0 W/m 3,2 km/h (1 Bft) 97,87 %
26.10.2022 01:26 11,4 C 10,6 C 7,8 C 95 % 1015,1 hPa 0,0 l/m 0 min 0 min 0 W/m 6,4 km/h (2 Bft) 95,74 %
26.10.2022 01:28 11,4 C 10,6 C 7,8 C 95 % 1015,1 hPa 0,0 l/m 0 min 0 min 0 W/m 3,2 km/h (1 Bft) 97,83 %
26.10.2022 01:30 11,4 C 10,6 C 7,8 C 95 % 1015,1 hPa 0,0 l/m 0 min 0 min 0 W/m 3,2 km/h (1 Bft) 100,00 %
26.10.2022 01:32 11,5 C 10,6 C 7,8 C 95 % 1015,1 hPa 0,0 l/m 0 min 0 min 0 W/m 6,4 km/h (2 Bft) 100,00 %
26.10.2022 01:34 11,4 C 10,6 C 7,8 C 95 % 1015,2 hPa 0,0 l/m 0 min 0 min 0 W/m 3,2 km/h (1 Bft) 97,87 %
26.10.2022 01:36 11,5 C 10,6 C 7,8 C 95 % 1015,1 hPa 0,0 l/m 0 min 0 min 0 W/m 6,4 km/h (2 Bft) 100,00 %
26.10.2022 01:38 11,5 C 10,6 C 7,8 C 95 % 1015,1 hPa 0,0 l/m 0 min 0 min 0 W/m 3,2 km/h (1 Bft) 100,00 %
26.10.2022 01:40 11,5 C 10,6 C 7,8 C 95 % 1015,1 hPa 0,0 l/m 0 min 0 min 0 W/m 6,4 km/h (2 Bft) 100,00 %
26.10.2022 01:42 11,5 C 11,1 C 7,8 C 95 % 1015,1 hPa 0,0 l/m 0 min 0 min 0 W/m 3,2 km/h (1 Bft) 100,00 %
26.10.2022 01:44 11,5 C 11,1 C 7,8 C 95 % 1015,0 hPa 0,0 l/m 0 min 0 min 0 W/m 6,4 km/h (2 Bft) 97,87 %
26.10.2022 01:46 11,5 C 11,1 C 7,8 C 95 % 1015,0 hPa 0,0 l/m 0 min 0 min 0 W/m 3,2 km/h (1 Bft) 100,00 %
26.10.2022 01:48 11,5 C 11,1 C 7,8 C 95 % 1015,0 hPa 0,0 l/m 0 min 0 min 0 W/m 3,2 km/h (1 Bft) 97,87 %
26.10.2022 01:50 11,6 C 11,1 C 7,8 C 95 % 1015,0 hPa 0,0 l/m 0 min 0 min 0 W/m 3,2 km/h (1 Bft) 100,00 %
26.10.2022 01:52 11,5 C 11,1 C 7,8 C 95 % 1015,0 hPa 0,0 l/m 0 min 0 min 0 W/m 3,2 km/h (1 Bft) 95,74 %
26.10.2022 01:54 11,6 C 11,1 C 7,8 C 95 % 1015,0 hPa 0,0 l/m 0 min 0 min 0 W/m 3,2 km/h (1 Bft) 100,00 %
26.10.2022 01:56 11,6 C 11,1 C 7,8 C 95 % 1014,9 hPa 0,0 l/m 0 min 0 min 0 W/m 6,4 km/h (2 Bft) 100,00 %
26.10.2022 01:58 11,6 C 11,1 C 7,8 C 95 % 1014,9 hPa 0,0 l/m 0 min 0 min 0 W/m 6,4 km/h (2 Bft) 100,00 %
26.10.2022 02:00 11,6 C 11,1 C 7,8 C 95 % 1014,9 hPa 0,0 l/m 0 min 0 min 0 W/m 6,4 km/h (2 Bft) 97,87 %
26.10.2022 02:02 11,6 C 11,1 C 8,3 C 95 % 1014,8 hPa 0,0 l/m 0 min 0 min 0 W/m 6,4 km/h (2 Bft) 97,87 %
26.10.2022 02:04 11,6 C 11,1 C 8,3 C 95 % 1014,8 hPa 0,0 l/m 0 min 0 min 0 W/m 3,2 km/h (1 Bft) 100,00 %
26.10.2022 02:06 11,6 C 11,1 C 8,3 C 95 % 1014,9 hPa 0,0 l/m 0 min 0 min 0 W/m 6,4 km/h (2 Bft) 97,83 %
26.10.2022 02:08 11,6 C 11,1 C 8,3 C 95 % 1014,9 hPa 0,0 l/m 0 min 0 min 0 W/m 9,7 km/h (2 Bft) 97,87 %
26.10.2022 02:10 11,6 C 11,1 C 8,3 C 95 % 1014,9 hPa 0,0 l/m 0 min 0 min 0 W/m 3,2 km/h (1 Bft) 97,87 %
26.10.2022 02:12 11,6 C 11,1 C 8,3 C 95 % 1014,8 hPa 0,0 l/m 0 min 0 min 0 W/m 12,9 km/h (3 Bft) 97,87 %
26.10.2022 02:14 11,7 C 11,1 C 8,3 C 95 % 1014,9 hPa 0,0 l/m 0 min 0 min 0 W/m 6,4 km/h (2 Bft) 95,74 %
26.10.2022 02:16 11,7 C 11,1 C 8,3 C 95 % 1014,9 hPa 0,0 l/m 0 min 0 min 0 W/m 6,4 km/h (2 Bft) 95,74 %
26.10.2022 02:18 11,7 C 11,1 C 8,3 C 95 % 1014,9 hPa 0,0 l/m 0 min 0 min 0 W/m 12,9 km/h (3 Bft) 97,83 %
26.10.2022 02:20 11,7 C 11,1 C 8,3 C 95 % 1014,9 hPa 0,0 l/m 0 min 0 min 0 W/m 6,4 km/h (2 Bft) 97,87 %
26.10.2022 02:22 11,7 C 11,1 C 8,3 C 95 % 1014,8 hPa 0,0 l/m 0 min 0 min 0 W/m 6,4 km/h (2 Bft) 95,74 %
26.10.2022 02:24 11,8 C 11,1 C 8,3 C 95 % 1014,8 hPa 0,0 l/m 0 min 0 min 0 W/m 6,4 km/h (2 Bft) 95,74 %
26.10.2022 02:26 11,8 C 11,1 C 8,3 C 95 % 1014,8 hPa 0,0 l/m 0 min 0 min 0 W/m 6,4 km/h (2 Bft) 95,74 %
26.10.2022 02:28 11,8 C 11,1 C 8,3 C 95 % 1014,8 hPa 0,0 l/m 0 min 0 min 0 W/m 3,2 km/h (1 Bft) 95,74 %
26.10.2022 02:30 11,8 C 11,1 C 8,3 C 95 % 1014,8 hPa 0,0 l/m 0 min 0 min 0 W/m 3,2 km/h (1 Bft) 93,48 %
26.10.2022 02:32 11,8 C 11,1 C 8,3 C 95 % 1014,8 hPa 0,0 l/m 0 min 0 min 0 W/m 3,2 km/h (1 Bft) 93,62 %
26.10.2022 02:34 11,8 C 11,1 C 8,3 C 95 % 1014,7 hPa 0,0 l/m 0 min 0 min 0 W/m 6,4 km/h (2 Bft) 93,62 %
26.10.2022 02:36 11,8 C 11,1 C 8,3 C 95 % 1014,7 hPa 0,0 l/m 0 min 0 min 0 W/m 3,2 km/h (1 Bft) 95,74 %
26.10.2022 02:38 11,8 C 11,1 C 8,3 C 95 % 1014,7 hPa 0,0 l/m 0 min 0 min 0 W/m 6,4 km/h (2 Bft) 95,74 %
26.10.2022 02:40 11,8 C 11,1 C 8,3 C 95 % 1014,7 hPa 0,0 l/m 0 min 0 min 0 W/m 3,2 km/h (1 Bft) 97,83 %
26.10.2022 02:42 11,8 C 11,1 C 8,3 C 95 % 1014,7 hPa 0,0 l/m 0 min 0 min 0 W/m 6,4 km/h (2 Bft) 97,87 %
26.10.2022 02:44 11,8 C 11,1 C 8,3 C 95 % 1014,7 hPa 0,0 l/m 0 min 0 min 0 W/m 6,4 km/h (2 Bft) 97,87 %
26.10.2022 02:46 11,9 C 11,1 C 8,3 C 95 % 1014,6 hPa 0,0 l/m 0 min 0 min 0 W/m 6,4 km/h (2 Bft) 97,87 %
26.10.2022 02:48 11,9 C 11,1 C 8,3 C 95 % 1014,7 hPa 0,0 l/m 0 min 0 min 0 W/m 6,4 km/h (2 Bft) 97,87 %
26.10.2022 02:50 11,9 C 11,7 C 8,3 C 95 % 1014,6 hPa 0,0 l/m 0 min 0 min 0 W/m 6,4 km/h (2 Bft) 91,49 %
26.10.2022 02:52 11,9 C 11,7 C 8,3 C 95 % 1014,7 hPa 0,0 l/m 0 min 0 min 0 W/m 3,2 km/h (1 Bft) 97,83 %
26.10.2022 02:54 11,9 C 11,7 C 8,3 C 95 % 1014,6 hPa 0,0 l/m 0 min 0 min 0 W/m 3,2 km/h (1 Bft) 93,62 %
26.10.2022 02:56 11,9 C 11,7 C 8,3 C 95 % 1014,6 hPa 0,0 l/m 0 min 0 min 0 W/m 6,4 km/h (2 Bft) 97,87 %
26.10.2022 02:58 11,9 C 11,7 C 8,3 C 95 % 1014,7 hPa 0,0 l/m 0 min 0 min 0 W/m 3,2 km/h (1 Bft) 97,87 %
26.10.2022 03:00 11,9 C 11,7 C 8,3 C 95 % 1014,6 hPa 0,0 l/m 0 min 0 min 0 W/m 6,4 km/h (2 Bft) 97,87 %
26.10.2022 03:02 11,9 C 11,7 C 8,3 C 95 % 1014,6 hPa 0,0 l/m 0 min 0 min 0 W/m 6,4 km/h (2 Bft) 97,87 %
26.10.2022 03:04 12,0 C 11,7 C 8,3 C 95 % 1014,6 hPa 0,0 l/m 0 min 0 min 0 W/m 6,4 km/h (2 Bft) 97,83 %
26.10.2022 03:06 12,0 C 11,7 C 8,3 C 95 % 1014,7 hPa 0,0 l/m 0 min 0 min 0 W/m 12,9 km/h (3 Bft) 97,87 %
26.10.2022 03:08 12,0 C 11,7 C 8,3 C 95 % 1014,6 hPa 0,0 l/m 0 min 0 min 0 W/m 6,4 km/h (2 Bft) 97,87 %
26.10.2022 03:10 12,1 C 11,7 C 8,3 C 95 % 1014,6 hPa 0,0 l/m 0 min 0 min 0 W/m 6,4 km/h (2 Bft) 95,74 %
26.10.2022 03:12 12,1 C 11,7 C 8,3 C 94 % 1014,6 hPa 0,0 l/m 0 min 0 min 0 W/m 6,4 km/h (2 Bft) 91,49 %
26.10.2022 03:14 12,1 C 11,7 C 8,3 C 94 % 1014,6 hPa 0,0 l/m 0 min 0 min 0 W/m 6,4 km/h (2 Bft) 97,87 %
26.10.2022 03:16 12,1 C 11,7 C 8,3 C 94 % 1014,6 hPa 0,0 l/m 0 min 0 min 0 W/m 12,9 km/h (3 Bft) 97,83 %
26.10.2022 03:18 12,1 C 11,7 C 8,3 C 94 % 1014,6 hPa 0,0 l/m 0 min 0 min 0 W/m 6,4 km/h (2 Bft) 100,00 %
26.10.2022 03:20 12,1 C 11,7 C 8,9 C 94 % 1014,6 hPa 0,0 l/m 0 min 0 min 0 W/m 12,9 km/h (3 Bft) 95,74 %
26.10.2022 03:22 12,1 C 11,7 C 8,9 C 94 % 1014,5 hPa 0,0 l/m 0 min 0 min 0 W/m 9,7 km/h (2 Bft) 95,74 %
26.10.2022 03:24 12,1 C 11,7 C 8,3 C 94 % 1014,5 hPa 0,0 l/m 0 min 0 min 0 W/m 6,4 km/h (2 Bft) 97,87 %
26.10.2022 03:26 12,2 C 11,7 C 8,3 C 94 % 1014,5 hPa 0,0 l/m 0 min 0 min 0 W/m 6,4 km/h (2 Bft) 95,74 %
26.10.2022 03:28 12,2 C 11,7 C 8,3 C 94 % 1014,4 hPa 0,0 l/m 0 min 0 min 0 W/m 6,4 km/h (2 Bft) 97,83 %
26.10.2022 03:30 12,2 C 11,7 C 8,9 C 94 % 1014,4 hPa 0,0 l/m 0 min 0 min 0 W/m 6,4 km/h (2 Bft) 97,87 %
26.10.2022 03:32 12,2 C 11,7 C 8,9 C 94 % 1014,4 hPa 0,0 l/m 0 min 0 min 0 W/m 6,4 km/h (2 Bft) 93,62 %
26.10.2022 03:34 12,2 C 11,7 C 8,9 C 94 % 1014,4 hPa 0,0 l/m 0 min 0 min 0 W/m 6,4 km/h (2 Bft) 97,87 %
26.10.2022 03:36 12,2 C 11,7 C 8,9 C 94 % 1014,3 hPa 0,0 l/m 0 min 0 min 0 W/m 9,7 km/h (2 Bft) 97,87 %
26.10.2022 03:38 12,2 C 11,7 C 8,9 C 94 % 1014,3 hPa 0,0 l/m 0 min 0 min 0 W/m 12,9 km/h (3 Bft) 97,87 %
26.10.2022 03:40 12,2 C 11,7 C 8,9 C 94 % 1014,4 hPa 0,0 l/m 0 min 0 min 0 W/m 12,9 km/h (3 Bft) 97,83 %
26.10.2022 03:42 12,3 C 11,7 C 8,9 C 94 % 1014,3 hPa 0,0 l/m 0 min 0 min 0 W/m 12,9 km/h (3 Bft) 95,74 %
26.10.2022 03:44 12,3 C 11,7 C 8,9 C 94 % 1014,4 hPa 0,0 l/m 0 min 0 min 0 W/m 3,2 km/h (1 Bft) 97,87 %
26.10.2022 03:46 12,3 C 11,7 C 8,9 C 94 % 1014,4 hPa 0,0 l/m 0 min 0 min 0 W/m 6,4 km/h (2 Bft) 97,87 %
26.10.2022 03:48 12,3 C 11,7 C 8,9 C 94 % 1014,4 hPa 0,0 l/m 0 min 0 min 0 W/m 0,0 km/h (0 Bft) 97,87 %
26.10.2022 03:50 12,3 C 11,7 C 8,9 C 94 % 1014,3 hPa 0,0 l/m 0 min 0 min 0 W/m 6,4 km/h (2 Bft) 95,74 %
26.10.2022 03:52 12,3 C 11,7 C 8,9 C 94 % 1014,4 hPa 0,0 l/m 0 min 0 min 0 W/m 6,4 km/h (2 Bft) 95,65 %
26.10.2022 03:54 12,3 C 11,7 C 8,9 C 93 % 1014,3 hPa 0,0 l/m 0 min 0 min 0 W/m 3,2 km/h (1 Bft) 93,62 %
26.10.2022 03:56 12,3 C 11,7 C 8,9 C 93 % 1014,3 hPa 0,0 l/m 0 min 0 min 0 W/m 3,2 km/h (1 Bft) 93,62 %
26.10.2022 03:58 12,3 C 11,7 C 8,9 C 93 % 1014,3 hPa 0,0 l/m 0 min 0 min 0 W/m 6,4 km/h (2 Bft) 95,74 %
26.10.2022 04:00 12,3 C 11,7 C 8,9 C 93 % 1014,2 hPa 0,0 l/m 0 min 0 min 0 W/m 6,4 km/h (2 Bft) 95,74 %
26.10.2022 04:02 12,4 C 11,7 C 8,9 C 93 % 1014,1 hPa 0,0 l/m 0 min 0 min 0 W/m 3,2 km/h (1 Bft) 90,48 %
26.10.2022 04:04 12,4 C 11,7 C 8,9 C 93 % 1014,2 hPa 0,0 l/m 0 min 0 min 0 W/m 6,4 km/h (2 Bft) 97,83 %
26.10.2022 04:06 12,4 C 11,7 C 8,9 C 93 % 1014,1 hPa 0,0 l/m 0 min 0 min 0 W/m 3,2 km/h (1 Bft) 95,74 %
26.10.2022 04:08 12,4 C 11,7 C 8,9 C 93 % 1014,1 hPa 0,0 l/m 0 min 0 min 0 W/m 3,2 km/h (1 Bft) 97,87 %
26.10.2022 04:10 12,4 C 11,7 C 8,9 C 93 % 1014,1 hPa 0,0 l/m 0 min 0 min 0 W/m 3,2 km/h (1 Bft) 97,87 %
26.10.2022 04:12 12,4 C 11,7 C 8,9 C 93 % 1014,0 hPa 0,0 l/m 0 min 0 min 0 W/m 0,0 km/h (0 Bft) 95,74 %
26.10.2022 04:14 12,4 C 11,7 C 8,9 C 93 % 1014,0 hPa 0,0 l/m 0 min 0 min 0 W/m 3,2 km/h (1 Bft) 97,87 %
26.10.2022 04:16 12,4 C 11,7 C 8,9 C 93 % 1014,1 hPa 0,0 l/m 0 min 0 min 0 W/m 6,4 km/h (2 Bft) 97,83 %
26.10.2022 04:18 12,4 C 11,7 C 8,9 C 93 % 1014,0 hPa 0,0 l/m 0 min 0 min 0 W/m 6,4 km/h (2 Bft) 97,87 %
26.10.2022 04:20 12,4 C 11,7 C 8,9 C 93 % 1014,0 hPa 0,0 l/m 0 min 0 min 0 W/m 3,2 km/h (1 Bft) 97,87 %
26.10.2022 04:22 12,4 C 11,7 C 8,9 C 93 % 1013,9 hPa 0,0 l/m 0 min 0 min 0 W/m 3,2 km/h (1 Bft) 97,87 %
26.10.2022 04:24 12,4 C 11,7 C 8,9 C 93 % 1014,0 hPa 0,0 l/m 0 min 0 min 0 W/m 6,4 km/h (2 Bft) 97,87 %
26.10.2022 04:26 12,4 C 11,7 C 8,9 C 93 % 1013,9 hPa 0,0 l/m 0 min 0 min 0 W/m 3,2 km/h (1 Bft) 97,87 %
26.10.2022 04:28 12,4 C 11,7 C 8,9 C 93 % 1013,9 hPa 0,0 l/m 0 min 0 min 0 W/m 6,4 km/h (2 Bft) 98,11 %
26.10.2022 04:30 12,4 C 11,7 C 8,9 C 93 % 1013,9 hPa 0,0 l/m 0 min 0 min 0 W/m 3,2 km/h (1 Bft) 100,00 %
26.10.2022 04:32 12,4 C 11,7 C 8,9 C 93 % 1013,9 hPa 0,0 l/m 0 min 0 min 0 W/m 3,2 km/h (1 Bft) 100,00 %
26.10.2022 04:34 12,4 C 11,7 C 8,9 C 93 % 1013,9 hPa 0,0 l/m 0 min 0 min 0 W/m 6,4 km/h (2 Bft) 100,00 %
26.10.2022 04:36 12,4 C 11,7 C 8,9 C 93 % 1013,8 hPa 0,0 l/m 0 min 0 min 0 W/m 6,4 km/h (2 Bft) 100,00 %
26.10.2022 04:38 12,4 C 11,7 C 8,9 C 93 % 1013,9 hPa 0,0 l/m 0 min 0 min 0 W/m 3,2 km/h (1 Bft) 100,00 %
26.10.2022 04:40 12,4 C 11,7 C 8,9 C 93 % 1013,8 hPa 0,0 l/m 0 min 0 min 0 W/m 3,2 km/h (1 Bft) 100,00 %
26.10.2022 04:42 12,4 C 11,7 C 8,9 C 93 % 1013,9 hPa 0,0 l/m 0 min 0 min 0 W/m 3,2 km/h (1 Bft) 100,00 %
26.10.2022 04:44 12,4 C 11,7 C 8,9 C 93 % 1013,9 hPa 0,0 l/m 0 min 0 min 0 W/m 3,2 km/h (1 Bft) 100,00 %
26.10.2022 04:46 12,4 C 11,7 C 8,9 C 93 % 1013,8 hPa 0,0 l/m 0 min 0 min 0 W/m 3,2 km/h (1 Bft) 97,83 %
26.10.2022 04:48 12,4 C 11,7 C 8,9 C 93 % 1013,8 hPa 0,0 l/m 0 min 0 min 0 W/m 3,2 km/h (1 Bft) 100,00 %
26.10.2022 04:50 12,4 C 11,7 C 8,9 C 93 % 1013,8 hPa 0,0 l/m 0 min 0 min 0 W/m 3,2 km/h (1 Bft) 100,00 %
26.10.2022 04:52 12,4 C 11,7 C 8,9 C 93 % 1013,7 hPa 0,0 l/m 0 min 0 min 0 W/m 3,2 km/h (1 Bft) 100,00 %
26.10.2022 04:54 12,4 C 11,7 C 8,9 C 93 % 1013,7 hPa 0,0 l/m 0 min 0 min 0 W/m 3,2 km/h (1 Bft) 97,87 %
26.10.2022 04:56 12,5 C 11,7 C 8,9 C 93 % 1013,7 hPa 0,0 l/m 0 min 0 min 0 W/m 3,2 km/h (1 Bft) 100,00 %
26.10.2022 04:58 12,5 C 12,2 C 8,9 C 93 % 1013,7 hPa 0,0 l/m 0 min 0 min 0 W/m 3,2 km/h (1 Bft) 100,00 %
26.10.2022 05:00 12,5 C 12,2 C 8,9 C 93 % 1013,7 hPa 0,0 l/m 0 min 0 min 0 W/m 3,2 km/h (1 Bft) 100,00 %
26.10.2022 05:02 12,5 C 12,2 C 8,9 C 93 % 1013,7 hPa 0,0 l/m 0 min 0 min 0 W/m 12,9 km/h (3 Bft) 100,00 %
26.10.2022 05:04 12,5 C 12,2 C 8,9 C 93 % 1013,7 hPa 0,0 l/m 0 min 0 min 0 W/m 3,2 km/h (1 Bft) 100,00 %
26.10.2022 05:06 12,5 C 12,2 C 8,9 C 93 % 1013,7 hPa 0,0 l/m 0 min 0 min 0 W/m 3,2 km/h (1 Bft) 97,87 %
26.10.2022 05:08 12,6 C 12,2 C 8,9 C 93 % 1013,6 hPa 0,0 l/m 0 min 0 min 0 W/m 3,2 km/h (1 Bft) 100,00 %
26.10.2022 05:10 12,6 C 12,2 C 8,9 C 93 % 1013,6 hPa 0,0 l/m 0 min 0 min 0 W/m 6,4 km/h (2 Bft) 97,83 %
26.10.2022 05:12 12,6 C 12,2 C 8,9 C 93 % 1013,6 hPa 0,0 l/m 0 min 0 min 0 W/m 3,2 km/h (1 Bft) 100,00 %
26.10.2022 05:14 12,6 C 12,2 C 8,9 C 93 % 1013,7 hPa 0,0 l/m 0 min 0 min 0 W/m 3,2 km/h (1 Bft) 100,00 %
26.10.2022 05:16 12,6 C 12,2 C 8,9 C 93 % 1013,6 hPa 0,0 l/m 0 min 0 min 0 W/m 3,2 km/h (1 Bft) 100,00 %
26.10.2022 05:18 12,6 C 12,2 C 8,9 C 93 % 1013,6 hPa 0,0 l/m 0 min 0 min 0 W/m 3,2 km/h (1 Bft) 100,00 %
26.10.2022 05:20 12,6 C 12,2 C 8,9 C 93 % 1013,6 hPa 0,0 l/m 0 min 0 min 0 W/m 3,2 km/h (1 Bft) 100,00 %
26.10.2022 05:22 12,6 C 12,2 C 8,9 C 93 % 1013,6 hPa 0,0 l/m 0 min 0 min 0 W/m 3,2 km/h (1 Bft) 97,83 %
26.10.2022 05:24 12,6 C 12,2 C 8,9 C 93 % 1013,6 hPa 0,0 l/m 0 min 0 min 0 W/m 6,4 km/h (2 Bft) 97,87 %
26.10.2022 05:26 12,7 C 12,2 C 8,9 C 93 % 1013,6 hPa 0,0 l/m 0 min 0 min 0 W/m 3,2 km/h (1 Bft) 95,74 %
26.10.2022 05:28 12,7 C 12,2 C 8,9 C 93 % 1013,6 hPa 0,0 l/m 0 min 0 min 0 W/m 3,2 km/h (1 Bft) 95,74 %
26.10.2022 05:30 12,7 C 12,2 C 8,9 C 93 % 1013,6 hPa 0,0 l/m 0 min 0 min 0 W/m 3,2 km/h (1 Bft) 97,87 %
26.10.2022 05:32 12,7 C 12,2 C 8,9 C 93 % 1013,6 hPa 0,0 l/m 0 min 0 min 0 W/m 3,2 km/h (1 Bft) 97,87 %
26.10.2022 05:34 12,7 C 12,2 C 8,9 C 93 % 1013,6 hPa 0,0 l/m 0 min 0 min 0 W/m 12,9 km/h (3 Bft) 97,83 %
26.10.2022 05:36 12,7 C 12,2 C 8,9 C 93 % 1013,6 hPa 0,0 l/m 0 min 0 min 0 W/m 3,2 km/h (1 Bft) 97,87 %
26.10.2022 05:38 12,8 C 12,2 C 9,4 C 93 % 1013,7 hPa 0,0 l/m 0 min 0 min 0 W/m 3,2 km/h (1 Bft) 97,87 %
26.10.2022 05:40 12,8 C 12,2 C 9,4 C 93 % 1013,6 hPa 0,0 l/m 0 min 0 min 0 W/m 16,1 km/h (3 Bft) 97,87 %
26.10.2022 05:42 12,8 C 12,2 C 9,4 C 93 % 1013,6 hPa 0,0 l/m 0 min 0 min 0 W/m 6,4 km/h (2 Bft) 95,74 %
26.10.2022 05:44 12,8 C 12,2 C 9,4 C 93 % 1013,7 hPa 0,0 l/m 0 min 0 min 0 W/m 6,4 km/h (2 Bft) 97,83 %
26.10.2022 05:46 12,9 C 12,2 C 9,4 C 93 % 1013,6 hPa 0,0 l/m 0 min 0 min 0 W/m 6,4 km/h (2 Bft) 91,49 %
26.10.2022 05:48 12,9 C 12,2 C 9,4 C 93 % 1013,6 hPa 0,0 l/m 0 min 0 min 0 W/m 6,4 km/h (2 Bft) 97,87 %
26.10.2022 05:50 12,9 C 12,2 C 9,4 C 93 % 1013,6 hPa 0,0 l/m 0 min 0 min 0 W/m 9,7 km/h (2 Bft) 97,87 %
26.10.2022 05:52 12,9 C 12,2 C 9,4 C 93 % 1013,6 hPa 0,0 l/m 0 min 0 min 0 W/m 6,4 km/h (2 Bft) 95,74 %
26.10.2022 05:54 12,9 C 12,8 C 9,4 C 93 % 1013,6 hPa 0,0 l/m 0 min 0 min 0 W/m 6,4 km/h (2 Bft) 95,74 %
26.10.2022 05:56 13,0 C 12,8 C 9,4 C 93 % 1013,6 hPa 0,0 l/m 0 min 0 min 0 W/m 6,4 km/h (2 Bft) 93,48 %
26.10.2022 05:58 13,0 C 12,8 C 9,4 C 93 % 1013,6 hPa 0,0 l/m 0 min 0 min 0 W/m 6,4 km/h (2 Bft) 97,87 %
26.10.2022 06:00 13,1 C 12,8 C 9,4 C 93 % 1013,5 hPa 0,0 l/m 0 min 0 min 0 W/m 6,4 km/h (2 Bft) 95,74 %
26.10.2022 06:02 13,1 C 12,8 C 9,4 C 93 % 1013,5 hPa 0,0 l/m 0 min 0 min 0 W/m 6,4 km/h (2 Bft) 93,62 %
26.10.2022 06:04 13,1 C 12,8 C 9,4 C 93 % 1013,5 hPa 0,0 l/m 0 min 0 min 0 W/m 9,7 km/h (2 Bft) 89,36 %
26.10.2022 06:08 13,1 C 12,2 C 9,4 C 92 % 1013,6 hPa 0,0 l/m 0 min 0 min 0 W/m 6,4 km/h (2 Bft) 95,24 %
26.10.2022 06:10 13,1 C 12,2 C 9,4 C 93 % 1013,6 hPa 0,0 l/m 0 min 0 min 0 W/m 6,4 km/h (2 Bft) 91,30 %
26.10.2022 06:12 13,1 C 12,2 C 9,4 C 93 % 1013,6 hPa 0,0 l/m 0 min 0 min 0 W/m 6,4 km/h (2 Bft) 95,74 %
26.10.2022 06:14 13,1 C 12,2 C 9,4 C 93 % 1013,5 hPa 0,0 l/m 0 min 0 min 0 W/m 6,4 km/h (2 Bft) 95,74 %
26.10.2022 06:16 13,1 C 12,2 C 9,4 C 93 % 1013,5 hPa 0,0 l/m 0 min 0 min 0 W/m 6,4 km/h (2 Bft) 91,49 %
26.10.2022 06:18 13,1 C 12,2 C 9,4 C 92 % 1013,5 hPa 0,0 l/m 0 min 0 min 0 W/m 3,2 km/h (1 Bft) 95,74 %
26.10.2022 06:20 13,1 C 12,2 C 9,4 C 92 % 1013,5 hPa 0,0 l/m 0 min 0 min 0 W/m 6,4 km/h (2 Bft) 95,74 %
26.10.2022 06:22 13,1 C 12,2 C 9,4 C 92 % 1013,5 hPa 0,0 l/m 0 min 0 min 0 W/m 3,2 km/h (1 Bft) 95,65 %
26.10.2022 06:24 13,1 C 12,2 C 9,4 C 92 % 1013,6 hPa 0,0 l/m 0 min 0 min 0 W/m 12,9 km/h (3 Bft) 95,74 %
26.10.2022 06:26 13,1 C 12,2 C 9,4 C 92 % 1013,6 hPa 0,0 l/m 0 min 0 min 0 W/m 3,2 km/h (1 Bft) 97,87 %
26.10.2022 06:28 13,1 C 12,2 C 9,4 C 92 % 1013,6 hPa 0,0 l/m 0 min 0 min 0 W/m 0,0 km/h (0 Bft) 97,87 %
26.10.2022 06:30 13,1 C 12,2 C 9,4 C 92 % 1013,6 hPa 0,0 l/m 0 min 0 min 0 W/m 6,4 km/h (2 Bft) 97,87 %
26.10.2022 06:32 13,1 C 12,2 C 9,4 C 92 % 1013,6 hPa 0,0 l/m 0 min 0 min 0 W/m 3,2 km/h (1 Bft) 95,74 %
26.10.2022 06:34 13,1 C 12,2 C 9,4 C 92 % 1013,6 hPa 0,0 l/m 0 min 0 min 0 W/m 6,4 km/h (2 Bft) 95,74 %
26.10.2022 06:36 13,2 C 12,2 C 9,4 C 92 % 1013,6 hPa 0,0 l/m 0 min 0 min 0 W/m 6,4 km/h (2 Bft) 96,55 %
26.10.2022 06:38 13,2 C 12,8 C 9,4 C 92 % 1013,6 hPa 0,0 l/m 0 min 0 min 0 W/m 12,9 km/h (3 Bft) 100,00 %
26.10.2022 06:40 13,2 C 12,8 C 9,4 C 92 % 1013,7 hPa 0,0 l/m 0 min 0 min 0 W/m 6,4 km/h (2 Bft) 97,87 %
26.10.2022 06:42 13,2 C 12,8 C 9,4 C 92 % 1013,6 hPa 0,0 l/m 0 min 0 min 0 W/m 6,4 km/h (2 Bft) 93,62 %
26.10.2022 06:44 13,2 C 12,8 C 9,4 C 92 % 1013,6 hPa 0,0 l/m 0 min 0 min 0 W/m 6,4 km/h (2 Bft) 95,74 %
26.10.2022 06:46 13,2 C 12,8 C 9,4 C 92 % 1013,6 hPa 0,0 l/m 0 min 0 min 0 W/m 6,4 km/h (2 Bft) 97,83 %
26.10.2022 06:48 13,2 C 12,8 C 9,4 C 92 % 1013,6 hPa 0,0 l/m 0 min 0 min 0 W/m 12,9 km/h (3 Bft) 97,87 %
26.10.2022 06:50 13,2 C 12,8 C 9,4 C 92 % 1013,6 hPa 0,0 l/m 0 min 0 min 0 W/m 6,4 km/h (2 Bft) 97,87 %
26.10.2022 06:52 13,2 C 12,8 C 9,4 C 92 % 1013,6 hPa 0,0 l/m 0 min 0 min 0 W/m 6,4 km/h (2 Bft) 100,00 %
26.10.2022 06:54 13,3 C 12,8 C 9,4 C 92 % 1013,6 hPa 0,0 l/m 0 min 0 min 0 W/m 12,9 km/h (3 Bft) 100,00 %
26.10.2022 06:56 13,2 C 12,8 C 9,4 C 92 % 1013,6 hPa 0,0 l/m 0 min 0 min 0 W/m 6,4 km/h (2 Bft) 100,00 %
26.10.2022 06:58 13,3 C 12,8 C 9,4 C 92 % 1013,6 hPa 0,0 l/m 0 min 0 min 0 W/m 12,9 km/h (3 Bft) 100,00 %
26.10.2022 07:00 13,2 C 12,8 C 9,4 C 92 % 1013,5 hPa 0,0 l/m 0 min 0 min 0 W/m 12,9 km/h (3 Bft) 97,87 %
26.10.2022 07:02 13,3 C 12,8 C 9,4 C 92 % 1013,5 hPa 0,0 l/m 0 min 0 min 0 W/m 6,4 km/h (2 Bft) 100,00 %
26.10.2022 07:04 13,2 C 12,8 C 9,4 C 92 % 1013,5 hPa 0,0 l/m 0 min 0 min 0 W/m 6,4 km/h (2 Bft) 100,00 %
26.10.2022 07:06 13,2 C 12,8 C 9,4 C 92 % 1013,6 hPa 0,0 l/m 0 min 0 min 0 W/m 12,9 km/h (3 Bft) 100,00 %
26.10.2022 07:08 13,3 C 12,8 C 9,4 C 92 % 1013,5 hPa 0,0 l/m 0 min 0 min 0 W/m 6,4 km/h (2 Bft) 100,00 %
26.10.2022 07:10 13,3 C 12,8 C 9,4 C 92 % 1013,5 hPa 0,0 l/m 0 min 0 min 0 W/m 6,4 km/h (2 Bft) 100,00 %
26.10.2022 07:12 13,2 C 12,8 C 9,4 C 92 % 1013,6 hPa 0,0 l/m 0 min 0 min 0 W/m 6,4 km/h (2 Bft) 100,00 %
26.10.2022 07:14 13,3 C 12,8 C 9,4 C 92 % 1013,6 hPa 0,0 l/m 0 min 0 min 0 W/m 9,7 km/h (2 Bft) 100,00 %
26.10.2022 07:16 13,3 C 12,8 C 9,4 C 92 % 1013,6 hPa 0,0 l/m 0 min 0 min 0 W/m 6,4 km/h (2 Bft) 100,00 %
26.10.2022 07:18 13,3 C 12,8 C 9,4 C 92 % 1013,6 hPa 0,0 l/m 0 min 0 min 0 W/m 12,9 km/h (3 Bft) 100,00 %
26.10.2022 07:20 13,3 C 12,8 C 9,4 C 92 % 1013,5 hPa 0,0 l/m 0 min 0 min 0 W/m 3,2 km/h (1 Bft) 100,00 %
26.10.2022 07:22 13,3 C 12,8 C 9,4 C 92 % 1013,5 hPa 0,0 l/m 0 min 0 min 0 W/m 6,4 km/h (2 Bft) 100,00 %
26.10.2022 07:24 13,3 C 12,8 C 9,4 C 92 % 1013,6 hPa 0,0 l/m 0 min 0 min 0 W/m 3,2 km/h (1 Bft) 97,87 %
26.10.2022 07:26 13,3 C 12,8 C 9,4 C 92 % 1013,6 hPa 0,0 l/m 0 min 0 min 0 W/m 12,9 km/h (3 Bft) 100,00 %
26.10.2022 07:28 13,3 C 12,8 C 9,4 C 92 % 1013,6 hPa 0,0 l/m 0 min 0 min 0 W/m 16,1 km/h (3 Bft) 100,00 %
26.10.2022 07:30 13,3 C 12,8 C 9,4 C 92 % 1013,5 hPa 0,0 l/m 0 min 0 min 0 W/m 12,9 km/h (3 Bft) 100,00 %
26.10.2022 07:32 13,3 C 12,8 C 9,4 C 92 % 1013,5 hPa 0,0 l/m 0 min 0 min 0 W/m 12,9 km/h (3 Bft) 100,00 %
26.10.2022 07:34 13,3 C 12,8 C 9,4 C 92 % 1013,5 hPa 0,0 l/m 0 min 0 min 0 W/m 6,4 km/h (2 Bft) 100,00 %
26.10.2022 07:36 13,4 C 12,8 C 9,4 C 92 % 1013,5 hPa 0,0 l/m 0 min 0 min 0 W/m 6,4 km/h (2 Bft) 100,00 %
26.10.2022 07:38 13,4 C 12,8 C 9,4 C 92 % 1013,5 hPa 0,0 l/m 0 min 0 min 0 W/m 6,4 km/h (2 Bft) 100,00 %
26.10.2022 07:40 13,4 C 12,8 C 9,4 C 92 % 1013,5 hPa 0,0 l/m 0 min 0 min 0 W/m 6,4 km/h (2 Bft) 97,87 %
26.10.2022 07:42 13,4 C 12,8 C 9,4 C 92 % 1013,5 hPa 0,0 l/m 0 min 0 min 0 W/m 6,4 km/h (2 Bft) 100,00 %
26.10.2022 07:44 13,4 C 12,8 C 9,4 C 92 % 1013,5 hPa 0,0 l/m 0 min 0 min 0 W/m 9,7 km/h (2 Bft) 100,00 %
26.10.2022 07:46 13,4 C 12,8 C 9,4 C 92 % 1013,5 hPa 0,0 l/m 0 min 0 min 0 W/m 9,7 km/h (2 Bft) 100,00 %
26.10.2022 07:48 13,4 C 12,8 C 9,4 C 92 % 1013,5 hPa 0,0 l/m 0 min 0 min 0 W/m 6,4 km/h (2 Bft) 95,74 %
26.10.2022 07:50 13,4 C 12,8 C 9,4 C 92 % 1013,5 hPa 0,0 l/m 0 min 0 min 0 W/m 6,4 km/h (2 Bft) 97,87 %
26.10.2022 07:52 13,4 C 12,8 C 9,4 C 92 % 1013,6 hPa 0,0 l/m 0 min 0 min 0 W/m 6,4 km/h (2 Bft) 97,87 %
26.10.2022 07:54 13,4 C 12,8 C 9,4 C 92 % 1013,7 hPa 0,0 l/m 0 min 0 min 0 W/m 3,2 km/h (1 Bft) 97,83 %
26.10.2022 07:56 13,4 C 12,8 C 9,4 C 92 % 1013,6 hPa 0,0 l/m 0 min 0 min 0 W/m 6,4 km/h (2 Bft) 97,87 %
26.10.2022 07:58 13,4 C 12,8 C 9,4 C 92 % 1013,6 hPa 0,0 l/m 0 min 0 min 0 W/m 3,2 km/h (1 Bft) 97,87 %
26.10.2022 08:00 13,4 C 12,8 C 9,4 C 92 % 1013,6 hPa 0,0 l/m 0 min 0 min 0 W/m 9,7 km/h (2 Bft) 97,87 %
26.10.2022 08:02 13,4 C 12,8 C 9,4 C 92 % 1013,6 hPa 0,0 l/m 0 min 0 min 0 W/m 6,4 km/h (2 Bft) 97,87 %
26.10.2022 08:04 13,4 C 12,8 C 9,4 C 92 % 1013,6 hPa 0,0 l/m 0 min 0 min 0 W/m 6,4 km/h (2 Bft) 97,87 %
26.10.2022 08:06 13,4 C 12,8 C 9,4 C 92 % 1013,6 hPa 0,0 l/m 0 min 0 min 0 W/m 12,9 km/h (3 Bft) 98,28 %
26.10.2022 08:08 13,4 C 12,8 C 9,4 C 92 % 1013,6 hPa 0,0 l/m 0 min 0 min 0 W/m 6,4 km/h (2 Bft) 97,14 %
26.10.2022 08:10 13,4 C 12,8 C 9,4 C 92 % 1013,6 hPa 0,0 l/m 0 min 0 min 0 W/m 6,4 km/h (2 Bft) 95,74 %
26.10.2022 08:12 13,4 C 12,8 C 9,4 C 92 % 1013,6 hPa 0,0 l/m 0 min 0 min 0 W/m 12,9 km/h (3 Bft) 95,74 %
26.10.2022 08:14 13,5 C 12,8 C 9,4 C 92 % 1013,6 hPa 0,0 l/m 0 min 0 min 0 W/m 6,4 km/h (2 Bft) 93,62 %
26.10.2022 08:16 13,5 C 12,8 C 9,4 C 92 % 1013,6 hPa 0,0 l/m 0 min 0 min 0 W/m 6,4 km/h (2 Bft) 93,62 %
26.10.2022 08:18 13,5 C 12,8 C 9,4 C 92 % 1013,7 hPa 0,0 l/m 0 min 0 min 0 W/m 12,9 km/h (3 Bft) 95,65 %
26.10.2022 08:20 13,5 C 12,8 C 9,4 C 92 % 1013,6 hPa 0,0 l/m 0 min 0 min 0 W/m 6,4 km/h (2 Bft) 95,74 %
26.10.2022 08:22 13,5 C 12,8 C 9,4 C 92 % 1013,6 hPa 0,0 l/m 0 min 0 min 0 W/m 12,9 km/h (3 Bft) 97,87 %
26.10.2022 08:24 13,5 C 12,8 C 9,4 C 92 % 1013,6 hPa 0,0 l/m 0 min 0 min 0 W/m 12,9 km/h (3 Bft) 97,87 %
26.10.2022 08:26 13,5 C 12,8 C 9,4 C 92 % 1013,6 hPa 0,0 l/m 0 min 0 min 0 W/m 6,4 km/h (2 Bft) 95,74 %
26.10.2022 08:28 13,6 C 12,8 C 9,4 C 92 % 1013,6 hPa 0,0 l/m 0 min 0 min 0 W/m 6,4 km/h (2 Bft) 95,74 %
26.10.2022 08:30 13,6 C 12,8 C 9,4 C 92 % 1013,7 hPa 0,0 l/m 0 min 0 min 0 W/m 6,4 km/h (2 Bft) 97,83 %
26.10.2022 08:32 13,6 C 12,8 C 9,4 C 92 % 1013,7 hPa 0,0 l/m 0 min 0 min 2 W/m 9,7 km/h (2 Bft) 93,62 %
26.10.2022 08:34 13,6 C 12,8 C 9,4 C 92 % 1013,7 hPa 0,0 l/m 0 min 0 min 5 W/m 12,9 km/h (3 Bft) 97,87 %
26.10.2022 08:36 13,6 C 12,8 C 9,4 C 92 % 1013,8 hPa 0,0 l/m 0 min 0 min 5 W/m 9,7 km/h (2 Bft) 98,28 %
26.10.2022 08:38 13,6 C 12,8 C 9,4 C 92 % 1013,7 hPa 0,0 l/m 0 min 0 min 5 W/m 12,9 km/h (3 Bft) 97,22 %
26.10.2022 08:40 13,6 C 12,8 C 10,0 C 92 % 1013,8 hPa 0,0 l/m 0 min 0 min 7 W/m 12,9 km/h (3 Bft) 95,65 %
26.10.2022 08:42 13,6 C 12,8 C 10,0 C 92 % 1013,7 hPa 0,0 l/m 0 min 0 min 7 W/m 3,2 km/h (1 Bft) 95,74 %
26.10.2022 08:44 13,6 C 12,8 C 10,0 C 92 % 1013,8 hPa 0,0 l/m 0 min 0 min 7 W/m 12,9 km/h (3 Bft) 93,62 %
26.10.2022 08:46 13,7 C 12,8 C 10,0 C 92 % 1013,8 hPa 0,0 l/m 0 min 0 min 9 W/m 12,9 km/h (3 Bft) 93,62 %
26.10.2022 08:48 13,7 C 12,8 C 10,0 C 92 % 1013,8 hPa 0,0 l/m 0 min 0 min 10 W/m 6,4 km/h (2 Bft) 97,87 %
26.10.2022 08:50 13,7 C 12,8 C 10,0 C 92 % 1013,8 hPa 0,0 l/m 0 min 0 min 12 W/m 6,4 km/h (2 Bft) 97,87 %
26.10.2022 08:52 13,7 C 12,8 C 10,0 C 92 % 1013,7 hPa 0,0 l/m 0 min 0 min 14 W/m 12,9 km/h (3 Bft) 95,65 %
26.10.2022 08:54 13,7 C 12,8 C 10,0 C 92 % 1013,7 hPa 0,0 l/m 0 min 0 min 14 W/m 12,9 km/h (3 Bft) 93,62 %
26.10.2022 08:56 13,7 C 12,8 C 10,0 C 92 % 1013,7 hPa 0,0 l/m 0 min 0 min 17 W/m 6,4 km/h (2 Bft) 95,74 %
26.10.2022 08:58 13,7 C 12,8 C 9,4 C 92 % 1013,7 hPa 0,0 l/m 0 min 0 min 18 W/m 6,4 km/h (2 Bft) 95,74 %
26.10.2022 09:00 13,7 C 12,8 C 9,4 C 92 % 1013,7 hPa 0,0 l/m 0 min 0 min 18 W/m 12,9 km/h (3 Bft) 93,62 %
26.10.2022 09:02 13,7 C 12,8 C 9,4 C 92 % 1013,9 hPa 0,0 l/m 0 min 0 min 20 W/m 12,9 km/h (3 Bft) 95,74 %
26.10.2022 09:04 13,7 C 12,8 C 9,4 C 91 % 1013,9 hPa 0,0 l/m 0 min 0 min 22 W/m 12,9 km/h (3 Bft) 95,65 %
26.10.2022 09:06 13,7 C 12,8 C 9,4 C 91 % 1014,0 hPa 0,0 l/m 0 min 0 min 27 W/m 6,4 km/h (2 Bft) 96,77 %
26.10.2022 09:08 13,7 C 12,8 C 10,0 C 92 % 1013,9 hPa 0,0 l/m 0 min 0 min 32 W/m 6,4 km/h (2 Bft) 94,29 %
26.10.2022 09:10 13,7 C 12,8 C 10,0 C 92 % 1014,0 hPa 0,0 l/m 0 min 0 min 34 W/m 6,4 km/h (2 Bft) 97,87 %
26.10.2022 09:12 13,7 C 13,3 C 10,0 C 92 % 1014,0 hPa 0,0 l/m 0 min 0 min 35 W/m 3,2 km/h (1 Bft) 97,87 %
26.10.2022 09:14 13,7 C 13,3 C 10,0 C 92 % 1014,0 hPa 0,0 l/m 0 min 0 min 33 W/m 6,4 km/h (2 Bft) 97,87 %
26.10.2022 09:16 13,7 C 13,3 C 10,0 C 92 % 1014,0 hPa 0,0 l/m 0 min 0 min 33 W/m 3,2 km/h (1 Bft) 95,65 %
26.10.2022 09:18 13,7 C 13,3 C 10,0 C 92 % 1014,1 hPa 0,0 l/m 0 min 0 min 36 W/m 6,4 km/h (2 Bft) 97,87 %
26.10.2022 09:20 13,7 C 13,3 C 10,0 C 92 % 1014,0 hPa 0,0 l/m 0 min 0 min 39 W/m 3,2 km/h (1 Bft) 95,74 %
26.10.2022 09:22 13,7 C 13,3 C 10,0 C 92 % 1014,0 hPa 0,0 l/m 0 min 0 min 43 W/m 3,2 km/h (1 Bft) 97,87 %
26.10.2022 09:24 13,7 C 13,3 C 10,0 C 92 % 1014,1 hPa 0,0 l/m 0 min 0 min 46 W/m 3,2 km/h (1 Bft) 95,74 %
26.10.2022 09:26 13,7 C 13,3 C 10,0 C 92 % 1014,1 hPa 0,0 l/m 0 min 0 min 47 W/m 6,4 km/h (2 Bft) 97,87 %
26.10.2022 09:28 13,8 C 13,3 C 10,0 C 92 % 1014,1 hPa 0,0 l/m 0 min 0 min 47 W/m 6,4 km/h (2 Bft) 97,83 %
26.10.2022 09:30 13,8 C 13,3 C 10,0 C 92 % 1014,0 hPa 0,0 l/m 0 min 0 min 50 W/m 6,4 km/h (2 Bft) 95,74 %
26.10.2022 09:32 13,8 C 13,3 C 10,0 C 92 % 1014,1 hPa 0,0 l/m 0 min 0 min 52 W/m 6,4 km/h (2 Bft) 95,74 %
26.10.2022 09:34 13,8 C 13,3 C 10,0 C 92 % 1014,1 hPa 0,0 l/m 0 min 0 min 54 W/m 3,2 km/h (1 Bft) 97,87 %
26.10.2022 09:36 13,8 C 13,3 C 10,0 C 92 % 1014,1 hPa 0,0 l/m 0 min 0 min 54 W/m 6,4 km/h (2 Bft) 98,28 %
26.10.2022 09:38 13,8 C 13,3 C 10,0 C 92 % 1014,1 hPa 0,0 l/m 0 min 0 min 54 W/m 6,4 km/h (2 Bft) 97,22 %
26.10.2022 09:40 13,8 C 13,3 C 10,0 C 92 % 1014,1 hPa 0,0 l/m 0 min 0 min 54 W/m 3,2 km/h (1 Bft) 100,00 %
26.10.2022 09:42 13,9 C 13,3 C 10,0 C 92 % 1014,1 hPa 0,0 l/m 0 min 0 min 53 W/m 6,4 km/h (2 Bft) 97,87 %
26.10.2022 09:44 13,8 C 13,3 C 10,0 C 92 % 1014,1 hPa 0,0 l/m 0 min 0 min 52 W/m 3,2 km/h (1 Bft) 97,87 %
26.10.2022 09:46 13,9 C 13,3 C 10,0 C 92 % 1014,1 hPa 0,0 l/m 0 min 0 min 51 W/m 3,2 km/h (1 Bft) 95,74 %
26.10.2022 09:48 13,9 C 13,3 C 10,0 C 92 % 1014,1 hPa 0,0 l/m 0 min 0 min 46 W/m 6,4 km/h (2 Bft) 97,87 %
26.10.2022 09:50 13,9 C 13,3 C 10,0 C 92 % 1014,1 hPa 0,0 l/m 0 min 0 min 47 W/m 3,2 km/h (1 Bft) 97,87 %
26.10.2022 09:52 13,9 C 13,9 C 10,0 C 92 % 1014,0 hPa 0,0 l/m 0 min 0 min 54 W/m 6,4 km/h (2 Bft) 97,83 %
26.10.2022 09:54 13,9 C 13,9 C 10,0 C 92 % 1014,0 hPa 0,0 l/m 0 min 0 min 61 W/m 12,9 km/h (3 Bft) 97,87 %
26.10.2022 09:56 14,0 C 13,9 C 10,6 C 92 % 1014,0 hPa 0,0 l/m 0 min 0 min 55 W/m 6,4 km/h (2 Bft) 97,87 %
26.10.2022 09:58 14,0 C 13,9 C 10,6 C 92 % 1014,0 hPa 0,0 l/m 0 min 0 min 42 W/m 16,1 km/h (3 Bft) 97,87 %
26.10.2022 10:00 14,1 C 13,9 C 10,6 C 92 % 1014,1 hPa 0,0 l/m 0 min 0 min 29 W/m 16,1 km/h (3 Bft) 97,87 %
26.10.2022 10:02 14,1 C 13,9 C 10,6 C 92 % 1014,1 hPa 0,0 l/m 0 min 0 min 26 W/m 6,4 km/h (2 Bft) 97,87 %
26.10.2022 10:04 14,2 C 13,9 C 10,6 C 92 % 1014,1 hPa 0,0 l/m 0 min 0 min 27 W/m 9,7 km/h (2 Bft) 97,83 %
26.10.2022 10:06 14,3 C 13,9 C 10,6 C 92 % 1014,1 hPa 0,0 l/m 0 min 0 min 29 W/m 6,4 km/h (2 Bft) 97,87 %
26.10.2022 10:08 14,3 C 13,9 C 10,6 C 92 % 1014,2 hPa 0,0 l/m 0 min 0 min 35 W/m 12,9 km/h (3 Bft) 97,87 %
26.10.2022 10:10 14,3 C 14,4 C 10,6 C 92 % 1014,2 hPa 0,0 l/m 0 min 0 min 36 W/m 16,1 km/h (3 Bft) 97,87 %
26.10.2022 10:12 14,3 C 14,4 C 10,6 C 92 % 1014,2 hPa 0,0 l/m 0 min 0 min 33 W/m 16,1 km/h (3 Bft) 97,87 %
26.10.2022 10:14 14,3 C 14,4 C 10,6 C 92 % 1014,3 hPa 0,0 l/m 0 min 0 min 34 W/m 12,9 km/h (3 Bft) 97,87 %
26.10.2022 10:16 14,3 C 14,4 C 10,6 C 91 % 1014,4 hPa 0,0 l/m 0 min 0 min 69 W/m 6,4 km/h (2 Bft) 100,00 %
26.10.2022 10:18 14,4 C 14,4 C 10,6 C 91 % 1014,5 hPa 0,0 l/m 0 min 0 min 54 W/m 9,7 km/h (2 Bft) 97,87 %
26.10.2022 10:20 14,5 C 14,4 C 10,6 C 91 % 1014,6 hPa 0,0 l/m 0 min 0 min 67 W/m 12,9 km/h (3 Bft) 100,00 %
26.10.2022 10:22 14,6 C 14,4 C 11,1 C 91 % 1014,6 hPa 0,0 l/m 0 min 0 min 55 W/m 12,9 km/h (3 Bft) 95,74 %
26.10.2022 10:24 14,6 C 14,4 C 11,1 C 91 % 1014,6 hPa 0,0 l/m 0 min 0 min 51 W/m 12,9 km/h (3 Bft) 100,00 %
26.10.2022 10:26 14,7 C 14,4 C 11,1 C 91 % 1014,6 hPa 0,0 l/m 0 min 0 min 45 W/m 12,9 km/h (3 Bft) 100,00 %
26.10.2022 10:28 14,7 C 15,0 C 11,1 C 91 % 1014,6 hPa 0,0 l/m 0 min 0 min 62 W/m 6,4 km/h (2 Bft) 100,00 %
26.10.2022 10:30 14,8 C 15,0 C 11,1 C 91 % 1014,5 hPa 0,0 l/m 0 min 0 min 44 W/m 6,4 km/h (2 Bft) 100,00 %
26.10.2022 10:32 14,9 C 15,0 C 11,1 C 91 % 1014,5 hPa 0,0 l/m 0 min 0 min 35 W/m 12,9 km/h (3 Bft) 100,00 %
26.10.2022 10:34 14,9 C 15,0 C 11,1 C 91 % 1014,5 hPa 0,0 l/m 0 min 0 min 36 W/m 6,4 km/h (2 Bft) 95,74 %
26.10.2022 10:36 15,1 C 15,6 C 11,1 C 91 % 1014,5 hPa 0,0 l/m 0 min 0 min 37 W/m 9,7 km/h (2 Bft) 100,00 %
26.10.2022 10:38 15,1 C 15,6 C 11,1 C 90 % 1014,5 hPa 0,0 l/m 0 min 0 min 51 W/m 12,9 km/h (3 Bft) 97,87 %
26.10.2022 10:40 15,2 C 15,6 C 11,7 C 90 % 1014,5 hPa 0,0 l/m 0 min 0 min 63 W/m 16,1 km/h (3 Bft) 97,83 %
26.10.2022 10:42 15,3 C 15,6 C 11,7 C 90 % 1014,5 hPa 0,0 l/m 0 min 0 min 141 W/m 9,7 km/h (2 Bft) 100,00 %
26.10.2022 10:44 15,4 C 15,6 C 11,7 C 90 % 1014,6 hPa 0,0 l/m 0 min 0 min 83 W/m 6,4 km/h (2 Bft) 100,00 %
26.10.2022 10:46 15,4 C 16,1 C 11,7 C 90 % 1014,7 hPa 0,0 l/m 0 min 0 min 73 W/m 12,9 km/h (3 Bft) 95,74 %
26.10.2022 10:48 15,6 C 16,1 C 11,7 C 90 % 1014,8 hPa 0,0 l/m 0 min 0 min 84 W/m 12,9 km/h (3 Bft) 100,00 %
26.10.2022 10:50 15,6 C 16,1 C 11,7 C 89 % 1014,8 hPa 0,0 l/m 0 min 0 min 84 W/m 19,3 km/h (3 Bft) 100,00 %
26.10.2022 10:52 15,7 C 16,7 C 11,7 C 89 % 1014,9 hPa 0,0 l/m 0 min 0 min 93 W/m 6,4 km/h (2 Bft) 95,65 %
26.10.2022 10:54 15,8 C 16,7 C 11,7 C 89 % 1014,9 hPa 0,0 l/m 0 min 0 min 125 W/m 16,1 km/h (3 Bft) 100,00 %
26.10.2022 10:56 15,9 C 17,2 C 12,2 C 88 % 1014,8 hPa 0,0 l/m 0 min 0 min 107 W/m 19,3 km/h (3 Bft) 100,00 %
26.10.2022 10:58 15,9 C 17,8 C 12,2 C 88 % 1014,7 hPa 0,0 l/m 0 min 0 min 138 W/m 12,9 km/h (3 Bft) 95,74 %
26.10.2022 11:00 16,1 C 18,3 C 12,2 C 88 % 1014,7 hPa 0,0 l/m 0 min 0 min 118 W/m 12,9 km/h (3 Bft) 97,87 %
26.10.2022 11:02 16,1 C 18,3 C 12,2 C 87 % 1014,9 hPa 0,0 l/m 2 min 0 min 241 W/m 16,1 km/h (3 Bft) 95,65 %
26.10.2022 11:04 16,2 C 18,9 C 12,2 C 87 % 1015,0 hPa 0,0 l/m 2 min 0 min 365 W/m 6,4 km/h (2 Bft) 95,74 %
26.10.2022 11:06 16,3 C 18,9 C 12,2 C 87 % 1015,0 hPa 0,0 l/m 2 min 0 min 292 W/m 19,3 km/h (3 Bft) 98,31 %
26.10.2022 11:08 16,4 C 19,4 C 12,8 C 87 % 1014,9 hPa 0,0 l/m 0 min 0 min 125 W/m 6,4 km/h (2 Bft) 97,14 %
26.10.2022 11:10 16,5 C 21,1 C 12,8 C 86 % 1015,0 hPa 0,0 l/m 2 min 0 min 283 W/m 12,9 km/h (3 Bft) 95,74 %
26.10.2022 11:12 16,6 C 22,2 C 12,8 C 86 % 1015,0 hPa 0,0 l/m 2 min 0 min 345 W/m 6,4 km/h (2 Bft) 97,87 %
26.10.2022 11:14 16,7 C 23,3 C 12,8 C 86 % 1015,1 hPa 0,0 l/m 2 min 0 min 346 W/m 12,9 km/h (3 Bft) 97,87 %
26.10.2022 11:16 16,8 C 25,0 C 12,8 C 86 % 1015,1 hPa 0,0 l/m 2 min 0 min 347 W/m 9,7 km/h (2 Bft) 95,65 %
26.10.2022 11:18 16,9 C 25,0 C 12,8 C 85 % 1015,1 hPa 0,0 l/m 2 min 0 min 339 W/m 9,7 km/h (2 Bft) 97,87 %
26.10.2022 11:20 17,1 C 26,1 C 12,8 C 85 % 1015,2 hPa 0,0 l/m 2 min 0 min 324 W/m 6,4 km/h (2 Bft) 95,74 %
26.10.2022 11:22 17,2 C 26,1 C 12,8 C 85 % 1015,1 hPa 0,0 l/m 2 min 0 min 323 W/m 12,9 km/h (3 Bft) 95,74 %
26.10.2022 11:24 17,3 C 26,1 C 12,8 C 85 % 1015,1 hPa 0,0 l/m 2 min 0 min 332 W/m 12,9 km/h (3 Bft) 97,87 %
26.10.2022 11:26 17,3 C 25,6 C 12,8 C 84 % 1015,1 hPa 0,0 l/m 2 min 0 min 296 W/m 12,9 km/h (3 Bft) 97,87 %
26.10.2022 11:28 17,4 C 25,6 C 12,8 C 84 % 1015,0 hPa 0,0 l/m 0 min 0 min 125 W/m 16,1 km/h (3 Bft) 95,65 %
26.10.2022 11:30 17,5 C 25,6 C 12,8 C 84 % 1015,1 hPa 0,0 l/m 0 min 0 min 55 W/m 12,9 km/h (3 Bft) 97,87 %
26.10.2022 11:32 17,6 C 25,6 C 12,8 C 84 % 1015,2 hPa 0,0 l/m 0 min 0 min 68 W/m 6,4 km/h (2 Bft) 97,87 %
26.10.2022 11:34 17,7 C 26,1 C 12,8 C 83 % 1015,2 hPa 0,0 l/m 0 min 0 min 69 W/m 16,1 km/h (3 Bft) 91,49 %
26.10.2022 11:36 17,8 C 26,1 C 12,8 C 83 % 1015,3 hPa 0,0 l/m 0 min 0 min 99 W/m 9,7 km/h (2 Bft) 95,74 %
26.10.2022 11:38 17,8 C 26,1 C 13,3 C 83 % 1015,2 hPa 0,0 l/m 0 min 0 min 169 W/m 9,7 km/h (2 Bft) 97,87 %
26.10.2022 11:40 17,9 C 25,0 C 13,3 C 83 % 1015,3 hPa 0,0 l/m 0 min 0 min 136 W/m 6,4 km/h (2 Bft) 95,65 %
26.10.2022 11:42 17,9 C 23,3 C 13,3 C 83 % 1015,3 hPa 0,0 l/m 2 min 0 min 247 W/m 16,1 km/h (3 Bft) 100,00 %
26.10.2022 11:44 18,0 C 22,8 C 13,3 C 83 % 1015,3 hPa 0,0 l/m 2 min 0 min 326 W/m 6,4 km/h (2 Bft) 97,87 %
26.10.2022 11:46 18,1 C 22,8 C 13,3 C 83 % 1015,4 hPa 0,0 l/m 2 min 0 min 341 W/m 9,7 km/h (2 Bft) 93,62 %
26.10.2022 11:48 18,1 C 22,8 C 13,3 C 82 % 1015,3 hPa 0,0 l/m 2 min 0 min 296 W/m 12,9 km/h (3 Bft) 95,74 %
26.10.2022 11:50 18,2 C 22,2 C 13,9 C 82 % 1015,5 hPa 0,0 l/m 0 min 0 min 94 W/m 16,1 km/h (3 Bft) 97,87 %
26.10.2022 11:52 18,2 C 21,1 C 13,9 C 81 % 1015,5 hPa 0,0 l/m 0 min 0 min 101 W/m 19,3 km/h (3 Bft) 95,65 %
26.10.2022 11:54 18,2 C 20,6 C 13,9 C 81 % 1015,5 hPa 0,0 l/m 2 min 0 min 225 W/m 12,9 km/h (3 Bft) 97,87 %
26.10.2022 11:56 18,3 C 20,6 C 13,9 C 81 % 1015,5 hPa 0,0 l/m 0 min 0 min 124 W/m 16,1 km/h (3 Bft) 93,62 %
26.10.2022 11:58 18,3 C 20,0 C 13,9 C 81 % 1015,5 hPa 0,0 l/m 0 min 0 min 72 W/m 9,7 km/h (2 Bft) 95,74 %
26.10.2022 12:00 18,3 C 20,0 C 13,9 C 80 % 1015,5 hPa 0,0 l/m 0 min 0 min 141 W/m 12,9 km/h (3 Bft) 97,87 %
26.10.2022 12:02 18,4 C 19,4 C 13,9 C 80 % 1015,5 hPa 0,0 l/m 0 min 0 min 196 W/m 9,7 km/h (2 Bft) 97,83 %
26.10.2022 12:04 18,4 C 18,9 C 13,9 C 80 % 1015,5 hPa 0,0 l/m 0 min 0 min 144 W/m 19,3 km/h (3 Bft) 95,74 %
26.10.2022 12:08 18,5 C 18,9 C 13,9 C 81 % 1015,6 hPa 0,0 l/m 0 min 0 min 57 W/m 12,9 km/h (3 Bft) 95,00 %
26.10.2022 12:10 18,5 C 18,3 C 13,9 C 80 % 1015,6 hPa 0,0 l/m 0 min 0 min 49 W/m 12,9 km/h (3 Bft) 93,62 %
26.10.2022 12:12 18,5 C 18,3 C 13,9 C 80 % 1015,6 hPa 0,0 l/m 0 min 0 min 51 W/m 22,5 km/h (4 Bft) 95,74 %
26.10.2022 12:14 18,6 C 18,3 C 13,9 C 80 % 1015,7 hPa 0,0 l/m 0 min 0 min 52 W/m 12,9 km/h (3 Bft) 97,87 %
26.10.2022 12:16 18,6 C 18,3 C 13,9 C 80 % 1015,8 hPa 0,0 l/m 0 min 0 min 53 W/m 16,1 km/h (3 Bft) 97,87 %
26.10.2022 12:18 18,6 C 18,3 C 13,9 C 80 % 1015,8 hPa 0,0 l/m 0 min 0 min 54 W/m 12,9 km/h (3 Bft) 100,00 %
26.10.2022 12:20 18,6 C 18,3 C 13,9 C 81 % 1015,7 hPa 0,0 l/m 0 min 0 min 54 W/m 12,9 km/h (3 Bft) 100,00 %
26.10.2022 12:22 18,6 C 18,3 C 13,9 C 81 % 1015,8 hPa 0,0 l/m 0 min 0 min 55 W/m 25,7 km/h (4 Bft) 95,74 %
26.10.2022 12:24 18,6 C 18,3 C 13,9 C 81 % 1015,8 hPa 0,0 l/m 0 min 0 min 56 W/m 29,0 km/h (5 Bft) 95,74 %
26.10.2022 12:26 18,7 C 18,3 C 13,9 C 81 % 1015,8 hPa 0,0 l/m 0 min 0 min 55 W/m 16,1 km/h (3 Bft) 97,87 %
26.10.2022 12:28 18,7 C 18,3 C 13,9 C 81 % 1015,8 hPa 0,0 l/m 0 min 0 min 62 W/m 16,1 km/h (3 Bft) 95,74 %
26.10.2022 12:30 18,7 C 18,3 C 13,9 C 81 % 1015,9 hPa 0,0 l/m 0 min 0 min 65 W/m 16,1 km/h (3 Bft) 97,83 %
26.10.2022 12:32 18,8 C 18,9 C 13,9 C 81 % 1015,9 hPa 0,0 l/m 0 min 0 min 62 W/m 19,3 km/h (3 Bft) 98,00 %
26.10.2022 12:34 18,8 C 18,9 C 13,9 C 81 % 1015,9 hPa 0,0 l/m 0 min 0 min 63 W/m 19,3 km/h (3 Bft) 95,74 %
26.10.2022 12:36 18,9 C 18,9 C 14,4 C 81 % 1016,0 hPa 0,0 l/m 0 min 0 min 60 W/m 22,5 km/h (4 Bft) 97,87 %
26.10.2022 12:38 18,9 C 18,9 C 14,4 C 81 % 1016,0 hPa 0,0 l/m 0 min 0 min 57 W/m 19,3 km/h (3 Bft) 95,74 %
26.10.2022 12:40 19,0 C 18,9 C 14,4 C 81 % 1016,1 hPa 0,0 l/m 0 min 0 min 60 W/m 22,5 km/h (4 Bft) 91,49 %
26.10.2022 12:42 19,0 C 18,9 C 14,4 C 81 % 1016,1 hPa 0,0 l/m 0 min 0 min 60 W/m 22,5 km/h (4 Bft) 97,83 %
26.10.2022 12:44 19,1 C 18,9 C 14,4 C 80 % 1016,1 hPa 0,0 l/m 0 min 0 min 62 W/m 32,2 km/h (5 Bft) 97,87 %
26.10.2022 12:46 19,1 C 18,3 C 14,4 C 80 % 1016,2 hPa 0,0 l/m 0 min 0 min 62 W/m 25,7 km/h (4 Bft) 91,49 %
26.10.2022 12:48 19,1 C 18,9 C 14,4 C 80 % 1016,1 hPa 0,0 l/m 0 min 0 min 63 W/m 19,3 km/h (3 Bft) 97,87 %
26.10.2022 12:50 19,1 C 18,9 C 14,4 C 80 % 1016,1 hPa 0,0 l/m 0 min 0 min 67 W/m 16,1 km/h (3 Bft) 97,87 %
26.10.2022 12:52 19,2 C 18,9 C 14,4 C 80 % 1016,1 hPa 0,0 l/m 0 min 0 min 70 W/m 25,7 km/h (4 Bft) 97,87 %
26.10.2022 12:54 19,2 C 18,9 C 14,4 C 80 % 1016,2 hPa 0,0 l/m 0 min 0 min 74 W/m 16,1 km/h (3 Bft) 97,83 %
26.10.2022 12:56 19,2 C 18,9 C 14,4 C 79 % 1016,2 hPa 0,0 l/m 0 min 0 min 77 W/m 19,3 km/h (3 Bft) 95,74 %
26.10.2022 12:58 19,3 C 18,9 C 14,4 C 79 % 1016,2 hPa 0,0 l/m 0 min 0 min 81 W/m 12,9 km/h (3 Bft) 97,87 %
26.10.2022 13:00 19,3 C 18,9 C 14,4 C 79 % 1016,2 hPa 0,0 l/m 0 min 0 min 84 W/m 22,5 km/h (4 Bft) 97,87 %
26.10.2022 13:02 19,4 C 18,9 C 14,4 C 79 % 1016,2 hPa 0,0 l/m 0 min 0 min 88 W/m 19,3 km/h (3 Bft) 97,87 %
26.10.2022 13:04 19,4 C 18,9 C 14,4 C 79 % 1016,2 hPa 0,0 l/m 0 min 0 min 91 W/m 29,0 km/h (5 Bft) 95,74 %
26.10.2022 13:06 19,4 C 18,9 C 14,4 C 79 % 1016,2 hPa 0,0 l/m 0 min 0 min 94 W/m 19,3 km/h (3 Bft) 97,83 %
26.10.2022 13:08 19,4 C 18,9 C 14,4 C 79 % 1016,3 hPa 0,0 l/m 0 min 0 min 93 W/m 22,5 km/h (4 Bft) 97,87 %
26.10.2022 13:10 19,5 C 18,9 C 14,4 C 79 % 1016,3 hPa 0,0 l/m 0 min 0 min 92 W/m 16,1 km/h (3 Bft) 95,74 %
26.10.2022 13:12 19,5 C 18,9 C 14,4 C 79 % 1016,3 hPa 0,0 l/m 0 min 0 min 92 W/m 16,1 km/h (3 Bft) 97,87 %
26.10.2022 13:14 19,5 C 18,9 C 14,4 C 79 % 1016,3 hPa 0,0 l/m 0 min 0 min 97 W/m 16,1 km/h (3 Bft) 97,87 %
26.10.2022 13:16 19,5 C 18,9 C 14,4 C 79 % 1016,3 hPa 0,0 l/m 0 min 0 min 95 W/m 12,9 km/h (3 Bft) 97,87 %
26.10.2022 13:18 19,5 C 18,9 C 14,4 C 80 % 1016,3 hPa 0,0 l/m 0 min 0 min 97 W/m 6,4 km/h (2 Bft) 97,83 %
26.10.2022 13:20 19,5 C 18,9 C 14,4 C 80 % 1016,3 hPa 0,0 l/m 0 min 0 min 96 W/m 12,9 km/h (3 Bft) 100,00 %
26.10.2022 13:22 19,5 C 18,9 C 14,4 C 80 % 1016,3 hPa 0,0 l/m 0 min 0 min 93 W/m 19,3 km/h (3 Bft) 100,00 %
26.10.2022 13:24 19,6 C 18,9 C 14,4 C 80 % 1016,4 hPa 0,0 l/m 0 min 0 min 89 W/m 16,1 km/h (3 Bft) 100,00 %
26.10.2022 13:26 19,5 C 18,9 C 14,4 C 79 % 1016,4 hPa 0,0 l/m 0 min 0 min 87 W/m 22,5 km/h (4 Bft) 100,00 %
26.10.2022 13:28 19,5 C 18,9 C 14,4 C 79 % 1016,4 hPa 0,0 l/m 0 min 0 min 85 W/m 19,3 km/h (3 Bft) 100,00 %
26.10.2022 13:30 19,5 C 18,9 C 14,4 C 79 % 1016,4 hPa 0,0 l/m 0 min 0 min 88 W/m 12,9 km/h (3 Bft) 97,83 %
26.10.2022 13:32 19,5 C 18,9 C 14,4 C 79 % 1016,5 hPa 0,0 l/m 0 min 0 min 88 W/m 32,2 km/h (5 Bft) 97,87 %
26.10.2022 13:34 19,5 C 18,9 C 14,4 C 79 % 1016,5 hPa 0,0 l/m 0 min 0 min 91 W/m 12,9 km/h (3 Bft) 95,74 %
26.10.2022 13:36 19,5 C 18,9 C 14,4 C 80 % 1016,5 hPa 0,0 l/m 0 min 0 min 101 W/m 12,9 km/h (3 Bft) 97,87 %
26.10.2022 13:38 19,5 C 18,9 C 14,4 C 80 % 1016,5 hPa 0,0 l/m 0 min 0 min 90 W/m 19,3 km/h (3 Bft) 97,87 %
26.10.2022 13:40 19,4 C 18,9 C 14,4 C 80 % 1016,4 hPa 0,0 l/m 0 min 0 min 100 W/m 6,4 km/h (2 Bft) 95,74 %
26.10.2022 13:42 19,4 C 18,9 C 14,4 C 80 % 1016,4 hPa 0,0 l/m 0 min 0 min 103 W/m 16,1 km/h (3 Bft) 95,65 %
26.10.2022 13:44 19,4 C 18,9 C 14,4 C 81 % 1016,4 hPa 0,0 l/m 0 min 0 min 111 W/m 6,4 km/h (2 Bft) 95,74 %
26.10.2022 13:46 19,4 C 19,4 C 14,4 C 81 % 1016,4 hPa 0,0 l/m 0 min 0 min 111 W/m 16,1 km/h (3 Bft) 95,74 %
26.10.2022 13:48 19,4 C 19,4 C 14,4 C 81 % 1016,4 hPa 0,0 l/m 0 min 0 min 112 W/m 6,4 km/h (2 Bft) 95,74 %
26.10.2022 13:50 19,5 C 19,4 C 14,4 C 81 % 1016,4 hPa 0,0 l/m 0 min 0 min 139 W/m 16,1 km/h (3 Bft) 95,74 %
26.10.2022 13:52 19,5 C 19,4 C 14,4 C 81 % 1016,4 hPa 0,0 l/m 0 min 0 min 147 W/m 12,9 km/h (3 Bft) 93,62 %
26.10.2022 13:54 19,5 C 20,0 C 14,4 C 81 % 1016,4 hPa 0,0 l/m 2 min 0 min 300 W/m 12,9 km/h (3 Bft) 95,65 %
26.10.2022 13:56 19,6 C 20,6 C 15,0 C 81 % 1016,5 hPa 0,0 l/m 2 min 0 min 262 W/m 22,5 km/h (4 Bft) 95,74 %
26.10.2022 13:58 19,6 C 21,1 C 15,0 C 80 % 1016,5 hPa 0,0 l/m 2 min 0 min 313 W/m 12,9 km/h (3 Bft) 93,62 %
26.10.2022 14:00 19,7 C 21,1 C 15,0 C 80 % 1016,5 hPa 0,0 l/m 2 min 0 min 281 W/m 32,2 km/h (5 Bft) 95,74 %
26.10.2022 14:02 19,8 C 21,7 C 15,0 C 80 % 1016,5 hPa 0,0 l/m 2 min 0 min 335 W/m 19,3 km/h (3 Bft) 95,74 %
26.10.2022 14:04 19,8 C 22,2 C 15,0 C 80 % 1016,5 hPa 0,0 l/m 2 min 0 min 337 W/m 12,9 km/h (3 Bft) 97,87 %
26.10.2022 14:06 19,9 C 22,2 C 15,0 C 80 % 1016,5 hPa 0,0 l/m 2 min 0 min 339 W/m 12,9 km/h (3 Bft) 93,48 %
26.10.2022 14:08 19,9 C 21,1 C 15,0 C 80 % 1016,6 hPa 0,0 l/m 2 min 0 min 229 W/m 19,3 km/h (3 Bft) 95,74 %
26.10.2022 14:10 19,9 C 21,1 C 15,0 C 80 % 1016,7 hPa 0,0 l/m 2 min 0 min 234 W/m 12,9 km/h (3 Bft) 93,62 %
26.10.2022 14:12 19,9 C 20,6 C 15,0 C 79 % 1016,8 hPa 0,0 l/m 2 min 0 min 253 W/m 19,3 km/h (3 Bft) 95,74 %
26.10.2022 14:14 19,9 C 20,0 C 15,0 C 79 % 1016,7 hPa 0,0 l/m 0 min 0 min 123 W/m 12,9 km/h (3 Bft) 97,87 %
26.10.2022 14:16 19,9 C 20,0 C 15,0 C 79 % 1016,7 hPa 0,0 l/m 0 min 0 min 147 W/m 19,3 km/h (3 Bft) 97,87 %
26.10.2022 14:18 19,9 C 20,0 C 15,0 C 80 % 1016,7 hPa 0,0 l/m 0 min 0 min 178 W/m 16,1 km/h (3 Bft) 97,83 %
26.10.2022 14:20 19,8 C 20,0 C 15,0 C 80 % 1016,8 hPa 0,0 l/m 0 min 0 min 128 W/m 19,3 km/h (3 Bft) 95,74 %
26.10.2022 14:22 19,9 C 20,0 C 15,0 C 80 % 1016,8 hPa 0,0 l/m 2 min 0 min 301 W/m 22,5 km/h (4 Bft) 100,00 %
26.10.2022 14:24 19,9 C 20,0 C 15,0 C 80 % 1016,8 hPa 0,0 l/m 2 min 0 min 376 W/m 22,5 km/h (4 Bft) 100,00 %
26.10.2022 14:26 20,0 C 20,6 C 15,0 C 80 % 1016,8 hPa 0,0 l/m 2 min 0 min 349 W/m 22,5 km/h (4 Bft) 97,87 %
26.10.2022 14:28 20,1 C 20,6 C 15,0 C 80 % 1016,8 hPa 0,0 l/m 2 min 0 min 328 W/m 16,1 km/h (3 Bft) 97,87 %
26.10.2022 14:30 20,1 C 20,6 C 15,0 C 79 % 1016,9 hPa 0,0 l/m 2 min 0 min 294 W/m 12,9 km/h (3 Bft) 100,00 %
26.10.2022 14:32 20,2 C 20,0 C 15,0 C 79 % 1016,9 hPa 0,0 l/m 2 min 0 min 287 W/m 16,1 km/h (3 Bft) 100,00 %
26.10.2022 14:34 20,2 C 20,0 C 15,0 C 79 % 1017,0 hPa 0,0 l/m 2 min 0 min 268 W/m 19,3 km/h (3 Bft) 97,87 %
26.10.2022 14:36 20,2 C 20,0 C 15,0 C 79 % 1016,9 hPa 0,0 l/m 2 min 0 min 260 W/m 6,4 km/h (2 Bft) 100,00 %
26.10.2022 14:38 20,2 C 20,0 C 15,0 C 79 % 1016,9 hPa 0,0 l/m 2 min 0 min 302 W/m 16,1 km/h (3 Bft) 100,00 %
26.10.2022 14:40 20,2 C 20,0 C 15,0 C 79 % 1017,0 hPa 0,0 l/m 2 min 0 min 309 W/m 22,5 km/h (4 Bft) 97,87 %
26.10.2022 14:42 20,2 C 20,0 C 15,0 C 79 % 1017,0 hPa 0,0 l/m 2 min 0 min 337 W/m 16,1 km/h (3 Bft) 100,00 %
26.10.2022 14:44 20,2 C 20,0 C 15,0 C 79 % 1017,0 hPa 0,0 l/m 2 min 0 min 336 W/m 25,7 km/h (4 Bft) 100,00 %
26.10.2022 14:46 20,2 C 20,0 C 15,0 C 79 % 1016,9 hPa 0,0 l/m 2 min 0 min 331 W/m 19,3 km/h (3 Bft) 100,00 %
26.10.2022 14:48 20,2 C 20,0 C 15,0 C 79 % 1016,9 hPa 0,0 l/m 2 min 0 min 302 W/m 12,9 km/h (3 Bft) 100,00 %
26.10.2022 14:50 20,3 C 20,0 C 15,0 C 79 % 1017,0 hPa 0,0 l/m 2 min 0 min 253 W/m 12,9 km/h (3 Bft) 100,00 %
26.10.2022 14:52 20,2 C 20,0 C 15,0 C 78 % 1017,0 hPa 0,0 l/m 2 min 0 min 248 W/m 12,9 km/h (3 Bft) 97,83 %
26.10.2022 14:54 20,2 C 20,0 C 15,0 C 79 % 1017,0 hPa 0,0 l/m 2 min 0 min 265 W/m 12,9 km/h (3 Bft) 100,00 %
26.10.2022 14:56 20,2 C 20,6 C 15,0 C 78 % 1017,0 hPa 0,0 l/m 2 min 0 min 298 W/m 16,1 km/h (3 Bft) 100,00 %
26.10.2022 14:58 20,2 C 20,6 C 15,0 C 78 % 1017,1 hPa 0,0 l/m 2 min 0 min 289 W/m 16,1 km/h (3 Bft) 100,00 %
26.10.2022 15:00 20,3 C 20,6 C 15,0 C 78 % 1017,1 hPa 0,0 l/m 2 min 0 min 297 W/m 12,9 km/h (3 Bft) 95,74 %
26.10.2022 15:02 20,3 C 20,6 C 15,0 C 78 % 1017,1 hPa 0,0 l/m 2 min 0 min 296 W/m 12,9 km/h (3 Bft) 95,74 %
26.10.2022 15:04 20,3 C 21,1 C 15,0 C 78 % 1017,0 hPa 0,0 l/m 2 min 0 min 309 W/m 16,1 km/h (3 Bft) 100,00 %
26.10.2022 15:06 20,3 C 20,6 C 15,0 C 78 % 1017,0 hPa 0,0 l/m 2 min 0 min 337 W/m 16,1 km/h (3 Bft) 100,00 %
26.10.2022 15:08 20,3 C 20,6 C 15,0 C 78 % 1017,1 hPa 0,0 l/m 2 min 0 min 306 W/m 6,4 km/h (2 Bft) 100,00 %
26.10.2022 15:10 20,4 C 20,6 C 15,0 C 78 % 1017,1 hPa 0,0 l/m 2 min 0 min 296 W/m 16,1 km/h (3 Bft) 95,74 %
26.10.2022 15:12 20,4 C 21,1 C 15,6 C 78 % 1017,1 hPa 0,0 l/m 2 min 0 min 304 W/m 25,7 km/h (4 Bft) 97,87 %
26.10.2022 15:14 20,4 C 21,1 C 15,6 C 77 % 1017,2 hPa 0,0 l/m 2 min 0 min 304 W/m 16,1 km/h (3 Bft) 100,00 %
26.10.2022 15:16 20,5 C 21,1 C 15,6 C 76 % 1017,0 hPa 0,0 l/m 2 min 0 min 336 W/m 19,3 km/h (3 Bft) 100,00 %
26.10.2022 15:18 20,5 C 21,1 C 15,6 C 76 % 1017,0 hPa 0,0 l/m 2 min 0 min 336 W/m 19,3 km/h (3 Bft) 100,00 %
26.10.2022 15:20 20,6 C 20,6 C 15,6 C 76 % 1017,2 hPa 0,0 l/m 2 min 0 min 350 W/m 22,5 km/h (4 Bft) 97,87 %
26.10.2022 15:22 20,6 C 20,6 C 15,6 C 75 % 1017,1 hPa 0,0 l/m 2 min 0 min 331 W/m 19,3 km/h (3 Bft) 95,74 %
26.10.2022 15:24 20,6 C 20,6 C 15,6 C 75 % 1017,1 hPa 0,0 l/m 2 min 0 min 320 W/m 19,3 km/h (3 Bft) 97,87 %
26.10.2022 15:26 20,6 C 20,6 C 15,6 C 76 % 1017,2 hPa 0,0 l/m 2 min 0 min 312 W/m 16,1 km/h (3 Bft) 93,62 %
26.10.2022 15:28 20,6 C 20,6 C 15,6 C 75 % 1017,2 hPa 0,0 l/m 2 min 0 min 308 W/m 22,5 km/h (4 Bft) 97,83 %
26.10.2022 15:30 20,6 C 20,6 C 15,6 C 75 % 1017,2 hPa 0,0 l/m 2 min 0 min 318 W/m 29,0 km/h (5 Bft) 97,87 %
26.10.2022 15:32 20,6 C 20,6 C 15,6 C 75 % 1017,3 hPa 0,0 l/m 2 min 0 min 284 W/m 16,1 km/h (3 Bft) 97,87 %
26.10.2022 15:34 20,6 C 20,6 C 15,6 C 75 % 1017,4 hPa 0,0 l/m 2 min 0 min 257 W/m 16,1 km/h (3 Bft) 97,87 %
26.10.2022 15:36 20,6 C 20,6 C 15,6 C 75 % 1017,4 hPa 0,0 l/m 2 min 0 min 251 W/m 19,3 km/h (3 Bft) 97,87 %
26.10.2022 15:38 20,6 C 20,6 C 15,6 C 75 % 1017,3 hPa 0,0 l/m 2 min 0 min 248 W/m 12,9 km/h (3 Bft) 97,87 %
26.10.2022 15:40 20,6 C 20,6 C 15,6 C 76 % 1017,4 hPa 0,0 l/m 2 min 0 min 247 W/m 6,4 km/h (2 Bft) 97,83 %
26.10.2022 15:42 20,6 C 20,6 C 15,6 C 75 % 1017,4 hPa 0,0 l/m 2 min 0 min 238 W/m 9,7 km/h (2 Bft) 97,87 %
26.10.2022 15:44 20,6 C 20,6 C 15,0 C 76 % 1017,4 hPa 0,0 l/m 2 min 0 min 228 W/m 12,9 km/h (3 Bft) 97,87 %
26.10.2022 15:46 20,6 C 20,6 C 15,0 C 76 % 1017,3 hPa 0,0 l/m 2 min 0 min 278 W/m 9,7 km/h (2 Bft) 97,87 %
26.10.2022 15:48 20,6 C 20,6 C 15,6 C 75 % 1017,3 hPa 0,0 l/m 2 min 0 min 278 W/m 19,3 km/h (3 Bft) 95,74 %
26.10.2022 15:50 20,6 C 20,6 C 15,6 C 75 % 1017,3 hPa 0,0 l/m 2 min 0 min 287 W/m 9,7 km/h (2 Bft) 100,00 %
26.10.2022 15:52 20,6 C 20,6 C 15,6 C 75 % 1017,3 hPa 0,0 l/m 2 min 0 min 295 W/m 3,2 km/h (1 Bft) 97,83 %
26.10.2022 15:54 20,6 C 20,6 C 15,6 C 76 % 1017,4 hPa 0,0 l/m 2 min 0 min 306 W/m 9,7 km/h (2 Bft) 95,83 %
26.10.2022 15:56 20,6 C 20,6 C 15,6 C 76 % 1017,4 hPa 0,0 l/m 2 min 0 min 275 W/m 12,9 km/h (3 Bft) 93,62 %
26.10.2022 15:58 20,6 C 20,6 C 15,6 C 76 % 1017,4 hPa 0,0 l/m 2 min 0 min 254 W/m 16,1 km/h (3 Bft) 93,62 %
26.10.2022 16:00 20,6 C 20,6 C 15,6 C 75 % 1017,4 hPa 0,0 l/m 2 min 0 min 221 W/m 19,3 km/h (3 Bft) 93,62 %
26.10.2022 16:02 20,7 C 20,6 C 15,6 C 75 % 1017,3 hPa 0,0 l/m 2 min 0 min 221 W/m 19,3 km/h (3 Bft) 93,62 %
26.10.2022 16:04 20,7 C 20,6 C 15,6 C 75 % 1017,4 hPa 0,0 l/m 2 min 0 min 224 W/m 12,9 km/h (3 Bft) 73,91 %
26.10.2022 16:06 20,7 C 20,6 C 15,6 C 75 % 1017,3 hPa 0,0 l/m 2 min 0 min 181 W/m 22,5 km/h (4 Bft) 93,62 %
26.10.2022 16:08 20,7 C 20,6 C 15,6 C 75 % 1017,3 hPa 0,0 l/m 2 min 0 min 203 W/m 6,4 km/h (2 Bft) 93,62 %
26.10.2022 16:10 20,7 C 20,6 C 15,6 C 75 % 1017,3 hPa 0,0 l/m 2 min 0 min 224 W/m 16,1 km/h (3 Bft) 91,49 %
26.10.2022 16:12 20,7 C 20,6 C 15,6 C 75 % 1017,3 hPa 0,0 l/m 2 min 0 min 228 W/m 19,3 km/h (3 Bft) 93,62 %
26.10.2022 16:14 20,7 C 20,6 C 15,6 C 75 % 1017,3 hPa 0,0 l/m 2 min 0 min 214 W/m 16,1 km/h (3 Bft) 97,87 %
26.10.2022 16:16 20,7 C 20,0 C 15,6 C 74 % 1017,3 hPa 0,0 l/m 2 min 0 min 196 W/m 12,9 km/h (3 Bft) 95,65 %
26.10.2022 16:18 20,7 C 20,0 C 15,6 C 75 % 1017,4 hPa 0,0 l/m 2 min 0 min 201 W/m 19,3 km/h (3 Bft) 95,74 %
26.10.2022 16:20 20,7 C 20,0 C 15,6 C 74 % 1017,4 hPa 0,0 l/m 2 min 0 min 191 W/m 12,9 km/h (3 Bft) 93,62 %
26.10.2022 16:22 20,7 C 20,0 C 15,6 C 74 % 1017,4 hPa 0,0 l/m 2 min 0 min 175 W/m 12,9 km/h (3 Bft) 95,74 %
26.10.2022 16:24 20,7 C 20,0 C 15,6 C 74 % 1017,5 hPa 0,0 l/m 2 min 0 min 182 W/m 16,1 km/h (3 Bft) 95,74 %
26.10.2022 16:26 20,7 C 20,0 C 15,6 C 75 % 1017,5 hPa 0,0 l/m 2 min 0 min 182 W/m 19,3 km/h (3 Bft) 95,74 %
26.10.2022 16:28 20,7 C 20,0 C 15,6 C 74 % 1017,5 hPa 0,0 l/m 2 min 0 min 161 W/m 16,1 km/h (3 Bft) 93,48 %
26.10.2022 16:30 20,6 C 20,0 C 15,6 C 74 % 1017,5 hPa 0,0 l/m 2 min 0 min 150 W/m 16,1 km/h (3 Bft) 95,74 %
26.10.2022 16:32 20,6 C 20,0 C 15,0 C 75 % 1017,5 hPa 0,0 l/m 2 min 0 min 119 W/m 16,1 km/h (3 Bft) 95,74 %
26.10.2022 16:34 20,6 C 20,0 C 15,0 C 75 % 1017,5 hPa 0,0 l/m 2 min 0 min 123 W/m 12,9 km/h (3 Bft) 93,62 %
26.10.2022 16:36 20,6 C 20,0 C 15,0 C 75 % 1017,5 hPa 0,0 l/m 2 min 0 min 120 W/m 9,7 km/h (2 Bft) 97,87 %
26.10.2022 16:38 20,6 C 20,0 C 15,0 C 75 % 1017,6 hPa 0,0 l/m 0 min 0 min 105 W/m 9,7 km/h (2 Bft) 100,00 %
26.10.2022 16:40 20,6 C 19,4 C 15,0 C 75 % 1017,6 hPa 0,0 l/m 0 min 0 min 96 W/m 16,1 km/h (3 Bft) 100,00 %
26.10.2022 16:42 20,6 C 19,4 C 15,0 C 74 % 1017,6 hPa 0,0 l/m 0 min 0 min 100 W/m 19,3 km/h (3 Bft) 100,00 %
26.10.2022 16:44 20,5 C 19,4 C 15,0 C 75 % 1017,6 hPa 0,0 l/m 0 min 0 min 101 W/m 16,1 km/h (3 Bft) 95,74 %
26.10.2022 16:46 20,4 C 19,4 C 15,0 C 74 % 1017,6 hPa 0,0 l/m 0 min 0 min 102 W/m 16,1 km/h (3 Bft) 100,00 %
26.10.2022 16:48 20,4 C 19,4 C 15,0 C 74 % 1017,6 hPa 0,0 l/m 0 min 0 min 92 W/m 9,7 km/h (2 Bft) 100,00 %
26.10.2022 16:50 20,4 C 19,4 C 15,0 C 74 % 1017,7 hPa 0,0 l/m 0 min 0 min 88 W/m 16,1 km/h (3 Bft) 100,00 %
26.10.2022 16:52 20,4 C 19,4 C 15,0 C 75 % 1017,6 hPa 0,0 l/m 0 min 0 min 85 W/m 6,4 km/h (2 Bft) 100,00 %
26.10.2022 16:54 20,4 C 19,4 C 15,0 C 75 % 1017,6 hPa 0,0 l/m 0 min 0 min 83 W/m 16,1 km/h (3 Bft) 100,00 %
26.10.2022 16:56 20,3 C 19,4 C 15,0 C 75 % 1017,7 hPa 0,0 l/m 0 min 0 min 79 W/m 19,3 km/h (3 Bft) 100,00 %
26.10.2022 16:58 20,3 C 19,4 C 15,0 C 74 % 1017,7 hPa 0,0 l/m 0 min 0 min 76 W/m 19,3 km/h (3 Bft) 100,00 %
26.10.2022 17:00 20,3 C 19,4 C 15,0 C 75 % 1017,7 hPa 0,0 l/m 0 min 0 min 74 W/m 6,4 km/h (2 Bft) 100,00 %
26.10.2022 17:02 20,3 C 19,4 C 15,0 C 75 % 1017,7 hPa 0,0 l/m 0 min 0 min 71 W/m 16,1 km/h (3 Bft) 100,00 %
26.10.2022 17:04 20,3 C 19,4 C 15,0 C 75 % 1017,8 hPa 0,0 l/m 0 min 0 min 69 W/m 16,1 km/h (3 Bft) 100,00 %
26.10.2022 17:06 20,2 C 19,4 C 15,0 C 75 % 1017,9 hPa 0,0 l/m 0 min 0 min 66 W/m 16,1 km/h (3 Bft) 100,00 %
26.10.2022 17:08 20,2 C 19,4 C 15,0 C 75 % 1017,9 hPa 0,0 l/m 0 min 0 min 63 W/m 12,9 km/h (3 Bft) 100,00 %
26.10.2022 17:10 20,2 C 19,4 C 15,0 C 75 % 1017,9 hPa 0,0 l/m 0 min 0 min 62 W/m 16,1 km/h (3 Bft) 97,87 %
26.10.2022 17:12 20,2 C 19,4 C 15,0 C 75 % 1017,9 hPa 0,0 l/m 0 min 0 min 62 W/m 19,3 km/h (3 Bft) 100,00 %
26.10.2022 17:14 20,1 C 19,4 C 15,0 C 75 % 1017,9 hPa 0,0 l/m 0 min 0 min 59 W/m 6,4 km/h (2 Bft) 100,00 %
26.10.2022 17:16 20,1 C 18,9 C 14,4 C 75 % 1017,9 hPa 0,0 l/m 0 min 0 min 57 W/m 3,2 km/h (1 Bft) 97,83 %
26.10.2022 17:18 20,1 C 18,9 C 14,4 C 75 % 1018,0 hPa 0,0 l/m 0 min 0 min 55 W/m 0,0 km/h (0 Bft) 100,00 %
26.10.2022 17:20 20,1 C 18,9 C 14,4 C 75 % 1017,9 hPa 0,0 l/m 0 min 0 min 54 W/m 12,9 km/h (3 Bft) 97,87 %
26.10.2022 17:22 20,0 C 18,9 C 14,4 C 75 % 1018,0 hPa 0,0 l/m 0 min 0 min 53 W/m 6,4 km/h (2 Bft) 100,00 %
26.10.2022 17:24 19,9 C 18,9 C 14,4 C 75 % 1018,1 hPa 0,0 l/m 0 min 0 min 52 W/m 12,9 km/h (3 Bft) 100,00 %
26.10.2022 17:26 19,9 C 18,9 C 14,4 C 75 % 1018,0 hPa 0,0 l/m 0 min 0 min 51 W/m 16,1 km/h (3 Bft) 100,00 %
26.10.2022 17:28 19,9 C 18,9 C 14,4 C 75 % 1018,0 hPa 0,0 l/m 0 min 0 min 49 W/m 6,4 km/h (2 Bft) 100,00 %
26.10.2022 17:30 19,8 C 18,9 C 14,4 C 75 % 1018,1 hPa 0,0 l/m 0 min 0 min 48 W/m 9,7 km/h (2 Bft) 100,00 %
26.10.2022 17:32 19,8 C 18,9 C 14,4 C 76 % 1018,1 hPa 0,0 l/m 0 min 0 min 47 W/m 9,7 km/h (2 Bft) 100,00 %
26.10.2022 17:34 19,8 C 18,9 C 14,4 C 76 % 1018,2 hPa 0,0 l/m 0 min 0 min 44 W/m 19,3 km/h (3 Bft) 100,00 %
26.10.2022 17:36 19,8 C 18,9 C 14,4 C 76 % 1018,2 hPa 0,0 l/m 0 min 0 min 41 W/m 12,9 km/h (3 Bft) 100,00 %
26.10.2022 17:38 19,7 C 18,9 C 14,4 C 76 % 1018,2 hPa 0,0 l/m 0 min 0 min 38 W/m 6,4 km/h (2 Bft) 100,00 %
26.10.2022 17:40 19,7 C 18,9 C 13,9 C 76 % 1018,2 hPa 0,0 l/m 0 min 0 min 35 W/m 9,7 km/h (2 Bft) 100,00 %
26.10.2022 17:42 19,7 C 18,3 C 13,9 C 76 % 1018,3 hPa 0,0 l/m 0 min 0 min 32 W/m 6,4 km/h (2 Bft) 100,00 %
26.10.2022 17:44 19,6 C 18,3 C 13,9 C 76 % 1018,3 hPa 0,0 l/m 0 min 0 min 30 W/m 12,9 km/h (3 Bft) 100,00 %
26.10.2022 17:46 19,6 C 18,3 C 13,9 C 76 % 1018,4 hPa 0,0 l/m 0 min 0 min 27 W/m 6,4 km/h (2 Bft) 100,00 %
26.10.2022 17:48 19,6 C 18,3 C 13,9 C 76 % 1018,4 hPa 0,0 l/m 0 min 0 min 25 W/m 9,7 km/h (2 Bft) 100,00 %
26.10.2022 17:50 19,5 C 18,3 C 13,9 C 77 % 1018,4 hPa 0,0 l/m 0 min 0 min 23 W/m 16,1 km/h (3 Bft) 100,00 %
26.10.2022 17:52 19,4 C 18,3 C 13,9 C 77 % 1018,5 hPa 0,0 l/m 0 min 0 min 21 W/m 12,9 km/h (3 Bft) 100,00 %
26.10.2022 17:54 19,4 C 18,3 C 13,9 C 77 % 1018,5 hPa 0,0 l/m 0 min 0 min 20 W/m 6,4 km/h (2 Bft) 100,00 %
26.10.2022 17:56 19,4 C 18,3 C 13,9 C 77 % 1018,5 hPa 0,0 l/m 0 min 0 min 19 W/m 0,0 km/h (0 Bft) 97,87 %
26.10.2022 17:58 19,3 C 18,3 C 13,9 C 77 % 1018,5 hPa 0,0 l/m 0 min 0 min 17 W/m 6,4 km/h (2 Bft) 97,87 %
26.10.2022 18:00 19,3 C 17,8 C 13,9 C 77 % 1018,5 hPa 0,0 l/m 0 min 0 min 15 W/m 6,4 km/h (2 Bft) 95,74 %
26.10.2022 18:02 19,2 C 17,8 C 13,9 C 77 % 1018,5 hPa 0,0 l/m 0 min 0 min 14 W/m 0,0 km/h (0 Bft) 97,87 %
26.10.2022 18:04 19,2 C 17,8 C 13,9 C 77 % 1018,6 hPa 0,0 l/m 0 min 0 min 12 W/m 0,0 km/h (0 Bft) 95,65 %
26.10.2022 18:08 19,1 C 17,8 C 13,9 C 77 % 1018,6 hPa 0,0 l/m 0 min 0 min 11 W/m 6,4 km/h (2 Bft) 98,81 %
26.10.2022 18:10 19,1 C 17,8 C 13,3 C 77 % 1018,7 hPa 0,0 l/m 0 min 0 min 9 W/m 0,0 km/h (0 Bft) 97,87 %
26.10.2022 18:12 19,0 C 17,8 C 13,3 C 78 % 1018,8 hPa 0,0 l/m 0 min 0 min 7 W/m 3,2 km/h (1 Bft) 95,65 %
26.10.2022 18:14 18,9 C 17,8 C 13,3 C 78 % 1018,8 hPa 0,0 l/m 0 min 0 min 5 W/m 0,0 km/h (0 Bft) 95,74 %
26.10.2022 18:16 18,9 C 17,2 C 13,3 C 78 % 1018,8 hPa 0,0 l/m 0 min 0 min 5 W/m 0,0 km/h (0 Bft) 95,74 %
26.10.2022 18:18 18,8 C 17,2 C 13,3 C 78 % 1018,8 hPa 0,0 l/m 0 min 0 min 1 W/m 0,0 km/h (0 Bft) 93,62 %
26.10.2022 18:20 18,8 C 17,2 C 13,3 C 78 % 1018,8 hPa 0,0 l/m 0 min 0 min 0 W/m 0,0 km/h (0 Bft) 95,74 %
26.10.2022 18:22 18,7 C 17,2 C 13,3 C 78 % 1018,9 hPa 0,0 l/m 0 min 0 min 0 W/m 0,0 km/h (0 Bft) 97,87 %
26.10.2022 18:24 18,6 C 17,2 C 13,3 C 78 % 1018,9 hPa 0,0 l/m 0 min 0 min 0 W/m 0,0 km/h (0 Bft) 93,48 %
26.10.2022 18:26 18,6 C 17,2 C 12,8 C 79 % 1018,9 hPa 0,0 l/m 0 min 0 min 0 W/m 0,0 km/h (0 Bft) 95,74 %
26.10.2022 18:28 18,5 C 17,2 C 12,8 C 79 % 1018,9 hPa 0,0 l/m 0 min 0 min 0 W/m 0,0 km/h (0 Bft) 93,62 %
26.10.2022 18:30 18,5 C 16,7 C 12,8 C 79 % 1019,0 hPa 0,0 l/m 0 min 0 min 0 W/m 0,0 km/h (0 Bft) 93,62 %
26.10.2022 18:32 18,4 C 16,7 C 12,8 C 79 % 1019,1 hPa 0,0 l/m 0 min 0 min 0 W/m 0,0 km/h (0 Bft) 93,62 %
26.10.2022 18:34 18,4 C 16,7 C 12,8 C 79 % 1019,1 hPa 0,0 l/m 0 min 0 min 0 W/m 0,0 km/h (0 Bft) 91,49 %
26.10.2022 18:36 18,3 C 16,7 C 12,8 C 79 % 1019,2 hPa 0,0 l/m 0 min 0 min 0 W/m 0,0 km/h (0 Bft) 94,83 %
26.10.2022 18:38 18,3 C 16,7 C 12,8 C 79 % 1019,2 hPa 0,0 l/m 0 min 0 min 0 W/m 0,0 km/h (0 Bft) 91,43 %
26.10.2022 18:40 18,2 C 16,7 C 12,8 C 80 % 1019,2 hPa 0,0 l/m 0 min 0 min 0 W/m 0,0 km/h (0 Bft) 93,62 %
26.10.2022 18:42 18,2 C 16,7 C 12,2 C 80 % 1019,3 hPa 0,0 l/m 0 min 0 min 0 W/m 0,0 km/h (0 Bft) 93,62 %
26.10.2022 18:44 18,1 C 16,7 C 12,2 C 80 % 1019,3 hPa 0,0 l/m 0 min 0 min 0 W/m 0,0 km/h (0 Bft) 93,62 %
26.10.2022 18:46 18,1 C 16,1 C 12,2 C 80 % 1019,3 hPa 0,0 l/m 0 min 0 min 0 W/m 0,0 km/h (0 Bft) 95,74 %
26.10.2022 18:48 18,1 C 16,1 C 12,2 C 80 % 1019,4 hPa 0,0 l/m 0 min 0 min 0 W/m 0,0 km/h (0 Bft) 95,65 %
26.10.2022 18:50 18,1 C 16,1 C 12,2 C 81 % 1019,4 hPa 0,0 l/m 0 min 0 min 0 W/m 0,0 km/h (0 Bft) 91,49 %
26.10.2022 18:52 18,0 C 16,1 C 11,7 C 81 % 1019,4 hPa 0,0 l/m 0 min 0 min 0 W/m 0,0 km/h (0 Bft) 48,78 %
26.10.2022 18:54 17,9 C 16,1 C 11,7 C 81 % 1019,4 hPa 0,0 l/m 0 min 0 min 0 W/m 0,0 km/h (0 Bft) 95,74 %
26.10.2022 18:56 17,9 C 16,1 C 11,7 C 81 % 1019,4 hPa 0,0 l/m 0 min 0 min 0 W/m 0,0 km/h (0 Bft) 95,74 %
26.10.2022 18:58 17,9 C 16,1 C 11,7 C 81 % 1019,5 hPa 0,0 l/m 0 min 0 min 0 W/m 0,0 km/h (0 Bft) 97,87 %
26.10.2022 19:00 17,9 C 16,1 C 11,7 C 81 % 1019,5 hPa 0,0 l/m 0 min 0 min 0 W/m 0,0 km/h (0 Bft) 97,83 %
26.10.2022 19:02 17,8 C 16,1 C 11,7 C 81 % 1019,6 hPa 0,0 l/m 0 min 0 min 0 W/m 0,0 km/h (0 Bft) 95,74 %
26.10.2022 19:04 17,8 C 16,1 C 11,7 C 82 % 1019,6 hPa 0,0 l/m 0 min 0 min 0 W/m 0,0 km/h (0 Bft) 97,87 %
26.10.2022 19:06 17,8 C 16,1 C 11,7 C 82 % 1019,7 hPa 0,0 l/m 0 min 0 min 0 W/m 0,0 km/h (0 Bft) 97,87 %
26.10.2022 19:08 17,8 C 16,1 C 11,7 C 82 % 1019,6 hPa 0,0 l/m 0 min 0 min 0 W/m 0,0 km/h (0 Bft) 95,74 %
26.10.2022 19:10 17,8 C 16,1 C 11,7 C 82 % 1019,8 hPa 0,0 l/m 0 min 0 min 0 W/m 0,0 km/h (0 Bft) 97,87 %
26.10.2022 19:12 17,7 C 16,1 C 11,7 C 82 % 1019,7 hPa 0,0 l/m 0 min 0 min 0 W/m 0,0 km/h (0 Bft) 97,83 %
26.10.2022 19:14 17,7 C 16,1 C 11,7 C 82 % 1019,7 hPa 0,0 l/m 0 min 0 min 0 W/m 0,0 km/h (0 Bft) 97,87 %
26.10.2022 19:16 17,7 C 16,1 C 11,1 C 82 % 1019,8 hPa 0,0 l/m 0 min 0 min 0 W/m 0,0 km/h (0 Bft) 97,87 %
26.10.2022 19:18 17,7 C 16,1 C 11,1 C 82 % 1019,8 hPa 0,0 l/m 0 min 0 min 0 W/m 0,0 km/h (0 Bft) 97,87 %
26.10.2022 19:20 17,7 C 16,1 C 11,1 C 82 % 1019,8 hPa 0,0 l/m 0 min 0 min 0 W/m 0,0 km/h (0 Bft) 100,00 %
26.10.2022 19:22 17,7 C 16,1 C 11,1 C 82 % 1019,8 hPa 0,0 l/m 0 min 0 min 0 W/m 0,0 km/h (0 Bft) 100,00 %
26.10.2022 19:24 17,7 C 16,1 C 11,1 C 82 % 1019,8 hPa 0,0 l/m 0 min 0 min 0 W/m 0,0 km/h (0 Bft) 100,00 %
26.10.2022 19:26 17,6 C 16,1 C 11,1 C 82 % 1019,9 hPa 0,0 l/m 0 min 0 min 0 W/m 0,0 km/h (0 Bft) 95,74 %
26.10.2022 19:28 17,6 C 16,7 C 11,7 C 82 % 1019,9 hPa 0,0 l/m 0 min 0 min 0 W/m 0,0 km/h (0 Bft) 100,00 %
26.10.2022 19:30 17,6 C 16,7 C 11,7 C 82 % 1019,9 hPa 0,0 l/m 0 min 0 min 0 W/m 0,0 km/h (0 Bft) 100,00 %
26.10.2022 19:32 17,6 C 16,7 C 11,7 C 82 % 1019,9 hPa 0,0 l/m 0 min 0 min 0 W/m 0,0 km/h (0 Bft) 100,00 %
26.10.2022 19:34 17,6 C 16,7 C 11,7 C 82 % 1020,0 hPa 0,0 l/m 0 min 0 min 0 W/m 0,0 km/h (0 Bft) 95,74 %
26.10.2022 19:36 17,6 C 16,7 C 11,1 C 82 % 1020,0 hPa 0,0 l/m 0 min 0 min 0 W/m 0,0 km/h (0 Bft) 100,00 %
26.10.2022 19:38 17,6 C 16,7 C 11,1 C 82 % 1020,1 hPa 0,0 l/m 0 min 0 min 0 W/m 0,0 km/h (0 Bft) 100,00 %
26.10.2022 19:40 17,6 C 16,1 C 11,1 C 82 % 1020,1 hPa 0,0 l/m 0 min 0 min 0 W/m 0,0 km/h (0 Bft) 97,87 %
26.10.2022 19:42 17,6 C 16,1 C 11,1 C 83 % 1020,1 hPa 0,0 l/m 0 min 0 min 0 W/m 0,0 km/h (0 Bft) 100,00 %
26.10.2022 19:44 17,6 C 16,1 C 11,1 C 83 % 1020,3 hPa 0,0 l/m 0 min 0 min 0 W/m 0,0 km/h (0 Bft) 95,74 %
26.10.2022 19:46 17,6 C 16,1 C 11,1 C 83 % 1020,3 hPa 0,0 l/m 0 min 0 min 0 W/m 0,0 km/h (0 Bft) 100,00 %
26.10.2022 19:48 17,6 C 16,1 C 11,1 C 83 % 1020,3 hPa 0,0 l/m 0 min 0 min 0 W/m 0,0 km/h (0 Bft) 100,00 %
26.10.2022 19:50 17,5 C 16,1 C 11,1 C 83 % 1020,4 hPa 0,0 l/m 0 min 0 min 0 W/m 0,0 km/h (0 Bft) 100,00 %
26.10.2022 19:52 17,5 C 16,1 C 11,1 C 83 % 1020,4 hPa 0,0 l/m 0 min 0 min 0 W/m 0,0 km/h (0 Bft) 100,00 %
26.10.2022 19:54 17,5 C 16,1 C 11,1 C 83 % 1020,5 hPa 0,0 l/m 0 min 0 min 0 W/m 0,0 km/h (0 Bft) 97,87 %
26.10.2022 19:56 17,5 C 15,6 C 11,1 C 83 % 1020,5 hPa 0,0 l/m 0 min 0 min 0 W/m 0,0 km/h (0 Bft) 100,00 %
26.10.2022 19:58 17,4 C 15,6 C 10,6 C 83 % 1020,5 hPa 0,0 l/m 0 min 0 min 0 W/m 0,0 km/h (0 Bft) 100,00 %
26.10.2022 20:00 17,4 C 15,6 C 10,6 C 83 % 1020,5 hPa 0,0 l/m 0 min 0 min 0 W/m 0,0 km/h (0 Bft) 97,83 %
26.10.2022 20:02 17,4 C 15,0 C 10,6 C 83 % 1020,6 hPa 0,0 l/m 0 min 0 min 0 W/m 0,0 km/h (0 Bft) 100,00 %
26.10.2022 20:04 17,4 C 15,0 C 10,6 C 83 % 1020,6 hPa 0,0 l/m 0 min 0 min 0 W/m 0,0 km/h (0 Bft) 100,00 %
26.10.2022 20:06 17,3 C 15,0 C 10,6 C 83 % 1020,6 hPa 0,0 l/m 0 min 0 min 0 W/m 0,0 km/h (0 Bft) 98,31 %
26.10.2022 20:08 17,3 C 15,0 C 10,6 C 83 % 1020,6 hPa 0,0 l/m 0 min 0 min 0 W/m 0,0 km/h (0 Bft) 97,14 %
26.10.2022 20:10 17,2 C 15,0 C 10,6 C 83 % 1020,6 hPa 0,0 l/m 0 min 0 min 0 W/m 0,0 km/h (0 Bft) 97,87 %
26.10.2022 20:12 17,2 C 15,0 C 10,6 C 84 % 1020,5 hPa 0,0 l/m 0 min 0 min 0 W/m 0,0 km/h (0 Bft) 95,65 %
26.10.2022 20:14 17,2 C 15,0 C 10,6 C 84 % 1020,6 hPa 0,0 l/m 0 min 0 min 0 W/m 0,0 km/h (0 Bft) 97,87 %
26.10.2022 20:16 17,1 C 15,0 C 10,6 C 84 % 1020,7 hPa 0,0 l/m 0 min 0 min 0 W/m 0,0 km/h (0 Bft) 97,87 %
26.10.2022 20:18 17,1 C 15,0 C 10,6 C 84 % 1020,7 hPa 0,0 l/m 0 min 0 min 0 W/m 0,0 km/h (0 Bft) 97,87 %
26.10.2022 20:20 17,1 C 15,0 C 10,0 C 84 % 1020,7 hPa 0,0 l/m 0 min 0 min 0 W/m 0,0 km/h (0 Bft) 97,87 %
26.10.2022 20:22 17,0 C 15,0 C 10,0 C 84 % 1020,8 hPa 0,0 l/m 0 min 0 min 0 W/m 0,0 km/h (0 Bft) 97,87 %
26.10.2022 20:24 16,9 C 15,0 C 10,6 C 84 % 1020,8 hPa 0,0 l/m 0 min 0 min 0 W/m 0,0 km/h (0 Bft) 97,83 %
26.10.2022 20:26 16,9 C 15,0 C 10,6 C 84 % 1020,8 hPa 0,0 l/m 0 min 0 min 0 W/m 0,0 km/h (0 Bft) 97,87 %
26.10.2022 20:28 16,9 C 15,0 C 10,6 C 85 % 1020,8 hPa 0,0 l/m 0 min 0 min 0 W/m 0,0 km/h (0 Bft) 95,74 %
26.10.2022 20:30 16,8 C 15,0 C 10,6 C 85 % 1020,8 hPa 0,0 l/m 0 min 0 min 0 W/m 0,0 km/h (0 Bft) 95,74 %
26.10.2022 20:32 16,8 C 15,0 C 10,6 C 85 % 1020,9 hPa 0,0 l/m 0 min 0 min 0 W/m 0,0 km/h (0 Bft) 95,74 %
26.10.2022 20:34 16,8 C 15,0 C 10,6 C 85 % 1020,9 hPa 0,0 l/m 0 min 0 min 0 W/m 0,0 km/h (0 Bft) 95,74 %
26.10.2022 20:36 16,7 C 15,0 C 10,6 C 85 % 1020,9 hPa 0,0 l/m 0 min 0 min 0 W/m 0,0 km/h (0 Bft) 100,00 %
26.10.2022 20:38 16,7 C 15,0 C 10,6 C 85 % 1020,9 hPa 0,0 l/m 0 min 0 min 0 W/m 0,0 km/h (0 Bft) 100,00 %
26.10.2022 20:40 16,7 C 15,0 C 10,6 C 86 % 1020,9 hPa 0,0 l/m 0 min 0 min 0 W/m 0,0 km/h (0 Bft) 100,00 %
26.10.2022 20:42 16,7 C 15,6 C 10,6 C 86 % 1021,0 hPa 0,0 l/m 0 min 0 min 0 W/m 0,0 km/h (0 Bft) 97,87 %
26.10.2022 20:44 16,6 C 15,6 C 10,6 C 86 % 1020,9 hPa 0,0 l/m 0 min 0 min 0 W/m 0,0 km/h (0 Bft) 97,87 %
26.10.2022 20:46 16,6 C 15,6 C 11,1 C 86 % 1020,9 hPa 0,0 l/m 0 min 0 min 0 W/m 0,0 km/h (0 Bft) 97,87 %
26.10.2022 20:48 16,6 C 15,6 C 11,1 C 86 % 1020,9 hPa 0,0 l/m 0 min 0 min 0 W/m 0,0 km/h (0 Bft) 95,65 %
26.10.2022 20:50 16,6 C 15,6 C 11,1 C 86 % 1021,0 hPa 0,0 l/m 0 min 0 min 0 W/m 0,0 km/h (0 Bft) 97,87 %
26.10.2022 20:52 16,6 C 15,6 C 11,1 C 86 % 1021,0 hPa 0,0 l/m 0 min 0 min 0 W/m 0,0 km/h (0 Bft) 97,87 %
26.10.2022 20:54 16,6 C 15,6 C 11,1 C 86 % 1021,0 hPa 0,0 l/m 0 min 0 min 0 W/m 0,0 km/h (0 Bft) 97,87 %
26.10.2022 20:56 16,5 C 15,6 C 11,1 C 86 % 1021,0 hPa 0,0 l/m 0 min 0 min 0 W/m 0,0 km/h (0 Bft) 97,87 %
26.10.2022 20:58 16,5 C 15,6 C 11,1 C 86 % 1021,0 hPa 0,0 l/m 0 min 0 min 0 W/m 0,0 km/h (0 Bft) 97,83 %
26.10.2022 21:00 16,5 C 15,6 C 10,6 C 86 % 1021,0 hPa 0,0 l/m 0 min 0 min 0 W/m 0,0 km/h (0 Bft) 97,87 %
26.10.2022 21:02 16,4 C 15,0 C 10,6 C 86 % 1021,1 hPa 0,0 l/m 0 min 0 min 0 W/m 0,0 km/h (0 Bft) 97,87 %
26.10.2022 21:04 16,4 C 15,0 C 10,6 C 86 % 1021,1 hPa 0,0 l/m 0 min 0 min 0 W/m 0,0 km/h (0 Bft) 95,74 %
26.10.2022 21:06 16,4 C 15,0 C 11,1 C 86 % 1021,1 hPa 0,0 l/m 0 min 0 min 0 W/m 0,0 km/h (0 Bft) 98,31 %
26.10.2022 21:08 16,4 C 15,6 C 11,1 C 87 % 1021,2 hPa 0,0 l/m 0 min 0 min 0 W/m 0,0 km/h (0 Bft) 97,14 %
26.10.2022 21:10 16,4 C 15,6 C 11,1 C 87 % 1021,2 hPa 0,0 l/m 0 min 0 min 0 W/m 0,0 km/h (0 Bft) 97,83 %
26.10.2022 21:12 16,4 C 15,6 C 11,1 C 87 % 1021,2 hPa 0,0 l/m 0 min 0 min 0 W/m 0,0 km/h (0 Bft) 97,87 %
26.10.2022 21:14 16,3 C 15,6 C 11,1 C 87 % 1021,2 hPa 0,0 l/m 0 min 0 min 0 W/m 0,0 km/h (0 Bft) 97,87 %
26.10.2022 21:16 16,3 C 15,6 C 11,1 C 87 % 1021,3 hPa 0,0 l/m 0 min 0 min 0 W/m 0,0 km/h (0 Bft) 97,87 %
26.10.2022 21:18 16,3 C 15,6 C 11,1 C 87 % 1021,3 hPa 0,0 l/m 0 min 0 min 0 W/m 0,0 km/h (0 Bft) 97,87 %
26.10.2022 21:20 16,3 C 15,6 C 11,1 C 87 % 1021,3 hPa 0,0 l/m 0 min 0 min 0 W/m 0,0 km/h (0 Bft) 97,87 %
26.10.2022 21:22 16,3 C 15,6 C 11,1 C 87 % 1021,3 hPa 0,0 l/m 0 min 0 min 0 W/m 0,0 km/h (0 Bft) 93,48 %
26.10.2022 21:24 16,3 C 15,6 C 11,1 C 87 % 1021,3 hPa 0,0 l/m 0 min 0 min 0 W/m 0,0 km/h (0 Bft) 93,62 %
26.10.2022 21:26 16,3 C 15,6 C 11,7 C 87 % 1021,3 hPa 0,0 l/m 0 min 0 min 0 W/m 0,0 km/h (0 Bft) 93,62 %
26.10.2022 21:28 16,3 C 15,0 C 11,1 C 87 % 1021,3 hPa 0,0 l/m 0 min 0 min 0 W/m 0,0 km/h (0 Bft) 97,87 %
26.10.2022 21:30 16,2 C 15,0 C 11,1 C 87 % 1021,4 hPa 0,0 l/m 0 min 0 min 0 W/m 0,0 km/h (0 Bft) 97,87 %
26.10.2022 21:32 16,3 C 15,0 C 11,1 C 87 % 1021,5 hPa 0,0 l/m 0 min 0 min 0 W/m 0,0 km/h (0 Bft) 95,74 %
26.10.2022 21:34 16,2 C 15,0 C 11,1 C 87 % 1021,5 hPa 0,0 l/m 0 min 0 min 0 W/m 0,0 km/h (0 Bft) 97,83 %
26.10.2022 21:36 16,2 C 15,0 C 11,1 C 87 % 1021,5 hPa 0,0 l/m 0 min 0 min 0 W/m 0,0 km/h (0 Bft) 98,31 %
26.10.2022 21:38 16,2 C 15,0 C 11,1 C 87 % 1021,5 hPa 0,0 l/m 0 min 0 min 0 W/m 0,0 km/h (0 Bft) 97,14 %
26.10.2022 21:40 16,2 C 15,0 C 11,1 C 87 % 1021,6 hPa 0,0 l/m 0 min 0 min 0 W/m 0,0 km/h (0 Bft) 97,87 %
26.10.2022 21:42 16,2 C 15,0 C 11,1 C 87 % 1021,6 hPa 0,0 l/m 0 min 0 min 0 W/m 0,0 km/h (0 Bft) 97,87 %
26.10.2022 21:44 16,2 C 15,0 C 11,1 C 87 % 1021,6 hPa 0,0 l/m 0 min 0 min 0 W/m 0,0 km/h (0 Bft) 95,74 %
26.10.2022 21:46 16,2 C 15,0 C 11,1 C 87 % 1021,6 hPa 0,0 l/m 0 min 0 min 0 W/m 0,0 km/h (0 Bft) 97,83 %
26.10.2022 21:48 16,1 C 15,0 C 11,1 C 87 % 1021,6 hPa 0,0 l/m 0 min 0 min 0 W/m 0,0 km/h (0 Bft) 95,74 %
26.10.2022 21:50 16,1 C 15,0 C 11,1 C 87 % 1021,6 hPa 0,0 l/m 0 min 0 min 0 W/m 0,0 km/h (0 Bft) 97,87 %
26.10.2022 21:52 16,1 C 15,0 C 11,1 C 87 % 1021,6 hPa 0,0 l/m 0 min 0 min 0 W/m 0,0 km/h (0 Bft) 97,87 %
26.10.2022 21:54 16,1 C 15,0 C 11,1 C 87 % 1021,6 hPa 0,0 l/m 0 min 0 min 0 W/m 0,0 km/h (0 Bft) 95,74 %
26.10.2022 21:56 16,1 C 15,0 C 11,1 C 87 % 1021,6 hPa 0,0 l/m 0 min 0 min 0 W/m 0,0 km/h (0 Bft) 95,74 %
26.10.2022 21:58 16,1 C 15,0 C 11,1 C 87 % 1021,6 hPa 0,0 l/m 0 min 0 min 0 W/m 0,0 km/h (0 Bft) 95,65 %
26.10.2022 22:00 16,0 C 15,0 C 11,1 C 87 % 1021,6 hPa 0,0 l/m 0 min 0 min 0 W/m 0,0 km/h (0 Bft) 95,74 %
26.10.2022 22:02 16,0 C 15,0 C 11,1 C 87 % 1021,7 hPa 0,0 l/m 0 min 0 min 0 W/m 0,0 km/h (0 Bft) 91,49 %
26.10.2022 22:04 16,0 C 15,0 C 11,1 C 87 % 1021,7 hPa 0,0 l/m 0 min 0 min 0 W/m 0,0 km/h (0 Bft) 95,74 %
26.10.2022 22:06 15,9 C 15,0 C 11,1 C 87 % 1021,7 hPa 0,0 l/m 0 min 0 min 0 W/m 0,0 km/h (0 Bft) 94,92 %
26.10.2022 22:08 15,9 C 15,0 C 11,1 C 87 % 1021,7 hPa 0,0 l/m 0 min 0 min 0 W/m 0,0 km/h (0 Bft) 94,29 %
26.10.2022 22:10 15,9 C 15,0 C 11,1 C 87 % 1021,6 hPa 0,0 l/m 0 min 0 min 0 W/m 0,0 km/h (0 Bft) 93,62 %
26.10.2022 22:12 15,9 C 15,0 C 11,1 C 87 % 1021,6 hPa 0,0 l/m 0 min 0 min 0 W/m 0,0 km/h (0 Bft) 95,65 %
26.10.2022 22:14 15,9 C 15,0 C 11,1 C 88 % 1021,6 hPa 0,0 l/m 0 min 0 min 0 W/m 0,0 km/h (0 Bft) 97,87 %
26.10.2022 22:16 15,9 C 15,0 C 11,1 C 88 % 1021,6 hPa 0,0 l/m 0 min 0 min 0 W/m 0,0 km/h (0 Bft) 95,74 %
26.10.2022 22:18 15,8 C 15,0 C 11,1 C 88 % 1021,6 hPa 0,0 l/m 0 min 0 min 0 W/m 0,0 km/h (0 Bft) 97,87 %
26.10.2022 22:20 15,8 C 15,0 C 11,1 C 88 % 1021,6 hPa 0,0 l/m 0 min 0 min 0 W/m 0,0 km/h (0 Bft) 97,87 %
26.10.2022 22:22 15,8 C 14,4 C 11,1 C 88 % 1021,6 hPa 0,0 l/m 0 min 0 min 0 W/m 0,0 km/h (0 Bft) 97,83 %
26.10.2022 22:24 15,8 C 14,4 C 11,1 C 88 % 1021,6 hPa 0,0 l/m 0 min 0 min 0 W/m 0,0 km/h (0 Bft) 95,74 %
26.10.2022 22:26 15,8 C 14,4 C 11,1 C 88 % 1021,6 hPa 0,0 l/m 0 min 0 min 0 W/m 0,0 km/h (0 Bft) 100,00 %
26.10.2022 22:28 15,8 C 14,4 C 11,1 C 88 % 1021,6 hPa 0,0 l/m 0 min 0 min 0 W/m 0,0 km/h (0 Bft) 100,00 %
26.10.2022 22:30 15,7 C 14,4 C 11,1 C 88 % 1021,7 hPa 0,0 l/m 0 min 0 min 0 W/m 0,0 km/h (0 Bft) 100,00 %
26.10.2022 22:32 15,7 C 14,4 C 11,1 C 88 % 1021,6 hPa 0,0 l/m 0 min 0 min 0 W/m 0,0 km/h (0 Bft) 100,00 %
26.10.2022 22:34 15,7 C 14,4 C 11,1 C 88 % 1021,7 hPa 0,0 l/m 0 min 0 min 0 W/m 0,0 km/h (0 Bft) 97,83 %
26.10.2022 22:36 15,7 C 14,4 C 11,1 C 88 % 1021,7 hPa 0,0 l/m 0 min 0 min 0 W/m 0,0 km/h (0 Bft) 98,31 %
26.10.2022 22:38 15,7 C 14,4 C 11,1 C 88 % 1021,8 hPa 0,0 l/m 0 min 0 min 0 W/m 0,0 km/h (0 Bft) 100,00 %
26.10.2022 22:40 15,7 C 14,4 C 11,1 C 88 % 1021,8 hPa 0,0 l/m 0 min 0 min 0 W/m 0,0 km/h (0 Bft) 100,00 %
26.10.2022 22:42 15,7 C 14,4 C 11,1 C 88 % 1021,8 hPa 0,0 l/m 0 min 0 min 0 W/m 0,0 km/h (0 Bft) 97,87 %
26.10.2022 22:44 15,6 C 14,4 C 11,1 C 88 % 1021,8 hPa 0,0 l/m 0 min 0 min 0 W/m 0,0 km/h (0 Bft) 100,00 %
26.10.2022 22:46 15,6 C 14,4 C 11,1 C 88 % 1021,8 hPa 0,0 l/m 0 min 0 min 0 W/m 0,0 km/h (0 Bft) 97,83 %
26.10.2022 22:48 15,6 C 14,4 C 11,1 C 88 % 1021,8 hPa 0,0 l/m 0 min 0 min 0 W/m 0,0 km/h (0 Bft) 97,87 %
26.10.2022 22:50 15,6 C 14,4 C 11,1 C 88 % 1021,8 hPa 0,0 l/m 0 min 0 min 0 W/m 0,0 km/h (0 Bft) 100,00 %
26.10.2022 22:52 15,6 C 14,4 C 10,6 C 88 % 1021,9 hPa 0,0 l/m 0 min 0 min 0 W/m 0,0 km/h (0 Bft) 100,00 %
26.10.2022 22:54 15,6 C 14,4 C 10,6 C 88 % 1021,9 hPa 0,0 l/m 0 min 0 min 0 W/m 0,0 km/h (0 Bft) 100,00 %
26.10.2022 22:56 15,5 C 14,4 C 10,6 C 88 % 1022,0 hPa 0,0 l/m 0 min 0 min 0 W/m 0,0 km/h (0 Bft) 100,00 %
26.10.2022 22:58 15,5 C 14,4 C 10,6 C 88 % 1022,1 hPa 0,0 l/m 0 min 0 min 0 W/m 0,0 km/h (0 Bft) 97,83 %
26.10.2022 23:00 15,5 C 14,4 C 10,6 C 88 % 1022,1 hPa 0,0 l/m 0 min 0 min 0 W/m 0,0 km/h (0 Bft) 87,23 %
26.10.2022 23:02 15,4 C 14,4 C 10,6 C 88 % 1022,1 hPa 0,0 l/m 0 min 0 min 0 W/m 0,0 km/h (0 Bft) 63,41 %
26.10.2022 23:04 15,4 C 14,4 C 10,6 C 88 % 1022,1 hPa 0,0 l/m 0 min 0 min 0 W/m 0,0 km/h (0 Bft) 97,87 %
26.10.2022 23:06 15,4 C 14,4 C 10,6 C 88 % 1022,1 hPa 0,0 l/m 0 min 0 min 0 W/m 0,0 km/h (0 Bft) 100,00 %
26.10.2022 23:08 15,4 C 14,4 C 10,6 C 89 % 1022,1 hPa 0,0 l/m 0 min 0 min 0 W/m 0,0 km/h (0 Bft) 100,00 %
26.10.2022 23:10 15,4 C 14,4 C 10,6 C 89 % 1022,2 hPa 0,0 l/m 0 min 0 min 0 W/m 0,0 km/h (0 Bft) 95,65 %
26.10.2022 23:12 15,3 C 14,4 C 10,6 C 89 % 1022,2 hPa 0,0 l/m 0 min 0 min 0 W/m 0,0 km/h (0 Bft) 100,00 %
26.10.2022 23:14 15,3 C 14,4 C 10,6 C 89 % 1022,2 hPa 0,0 l/m 0 min 0 min 0 W/m 0,0 km/h (0 Bft) 100,00 %
26.10.2022 23:16 15,3 C 13,9 C 10,6 C 89 % 1022,2 hPa 0,0 l/m 0 min 0 min 0 W/m 0,0 km/h (0 Bft) 97,87 %
26.10.2022 23:18 15,3 C 13,9 C 10,6 C 89 % 1022,2 hPa 0,0 l/m 0 min 0 min 0 W/m 0,0 km/h (0 Bft) 95,74 %
26.10.2022 23:20 15,2 C 13,9 C 10,6 C 89 % 1022,2 hPa 0,0 l/m 0 min 0 min 0 W/m 0,0 km/h (0 Bft) 97,87 %
26.10.2022 23:22 15,2 C 13,9 C 10,6 C 89 % 1022,2 hPa 0,0 l/m 0 min 0 min 0 W/m 0,0 km/h (0 Bft) 95,65 %
26.10.2022 23:24 15,2 C 13,9 C 10,6 C 89 % 1022,2 hPa 0,0 l/m 0 min 0 min 0 W/m 0,0 km/h (0 Bft) 97,87 %
26.10.2022 23:26 15,2 C 13,9 C 10,6 C 89 % 1022,3 hPa 0,0 l/m 0 min 0 min 0 W/m 0,0 km/h (0 Bft) 95,74 %
26.10.2022 23:28 15,2 C 13,9 C 10,6 C 89 % 1022,3 hPa 0,0 l/m 0 min 0 min 0 W/m 0,0 km/h (0 Bft) 95,74 %
26.10.2022 23:30 15,1 C 13,9 C 10,6 C 89 % 1022,3 hPa 0,0 l/m 0 min 0 min 0 W/m 0,0 km/h (0 Bft) 97,87 %
26.10.2022 23:32 15,1 C 13,9 C 10,6 C 89 % 1022,3 hPa 0,0 l/m 0 min 0 min 0 W/m 0,0 km/h (0 Bft) 97,87 %
26.10.2022 23:34 15,1 C 13,9 C 10,6 C 89 % 1022,2 hPa 0,0 l/m 0 min 0 min 0 W/m 0,0 km/h (0 Bft) 95,65 %
26.10.2022 23:36 15,1 C 13,9 C 10,6 C 89 % 1022,3 hPa 0,0 l/m 0 min 0 min 0 W/m 0,0 km/h (0 Bft) 97,87 %
26.10.2022 23:38 15,0 C 13,9 C 10,6 C 89 % 1022,3 hPa 0,0 l/m 0 min 0 min 0 W/m 0,0 km/h (0 Bft) 97,87 %
26.10.2022 23:40 15,0 C 13,9 C 10,6 C 89 % 1022,3 hPa 0,0 l/m 0 min 0 min 0 W/m 0,0 km/h (0 Bft) 93,62 %
26.10.2022 23:42 14,9 C 13,9 C 10,6 C 89 % 1022,3 hPa 0,0 l/m 0 min 0 min 0 W/m 0,0 km/h (0 Bft) 97,87 %
26.10.2022 23:44 14,9 C 13,9 C 10,6 C 89 % 1022,3 hPa 0,0 l/m 0 min 0 min 0 W/m 0,0 km/h (0 Bft) 97,87 %
26.10.2022 23:46 14,9 C 13,9 C 10,6 C 89 % 1022,4 hPa 0,0 l/m 0 min 0 min 0 W/m 0,0 km/h (0 Bft) 93,48 %
26.10.2022 23:48 14,8 C 13,9 C 10,6 C 89 % 1022,4 hPa 0,0 l/m 0 min 0 min 0 W/m 0,0 km/h (0 Bft) 95,74 %
26.10.2022 23:50 14,8 C 13,3 C 10,6 C 90 % 1022,4 hPa 0,0 l/m 0 min 0 min 0 W/m 0,0 km/h (0 Bft) 93,62 %
26.10.2022 23:52 14,8 C 13,3 C 10,0 C 90 % 1022,4 hPa 0,0 l/m 0 min 0 min 0 W/m 0,0 km/h (0 Bft) 91,49 %
26.10.2022 23:54 14,8 C 13,3 C 10,0 C 90 % 1022,4 hPa 0,0 l/m 0 min 0 min 0 W/m 0,0 km/h (0 Bft) 95,74 %
26.10.2022 23:56 14,7 C 13,3 C 10,0 C 90 % 1022,3 hPa 0,0 l/m 0 min 0 min 0 W/m 0,0 km/h (0 Bft) 93,62 %
26.10.2022 23:58 14,7 C 13,3 C 10,0 C 90 % 1022,4 hPa 0,0 l/m 0 min 0 min 0 W/m 0,0 km/h (0 Bft) 93,48 %
_ Min-Zeit 00:00 00:00 00:00 16:16 06:00 - - - - 00:48 18:52
Minimum _ 11,2 C 10,6 C 7,8 C 74 % 1013,5 hPa - - - - 0,0 km/h (0 Bft) 48,78 %
_ Max-Zeit 16:02 11:20 15:12 00:00 23:46 00:00 11:02 00:00 14:24 12:44 00:10
Maximum _ 20,7 C 26,1 C 15,6 C 95 % 1022,4 hPa 0,0 l/m 2 min 0 min 376 W/m 32,2 km/h
SW (5 Bft)
100,00 %
Durchschnitt _ 15,7 C 15,3 C 11,2 C 87 % 1016,6 hPa #0,0 l/m #3:10 h #0 min. 131 W/m 7,5 km/h (2 Bft) 97,22 %
© 2022 W. Hausmann